<?xml version="1.0" encoding="UTF-8" standalone="no" ?>
<gpx xmlns="http://www.topografix.com/GPX/1/1" xmlns:xsi="http://www.w3.org/2001/XMLSchema-instance" xsi:schemaLocation="http://www.topografix.com/GPX/1/1 http://www.topografix.com/GPX/1/1/gpx.xsd" version="1.1" creator="VisuGPX - https://www.visugpx.com">
  <metadata>
    <name>ASLPM marche Les Minimes le 9 Novembre 2015</name>
    <desc><![CDATA[ASLPM marche Les Minimes du 9 Novembre 2015]]></desc>
  </metadata>
  <trk>
    <name><![CDATA[09/11/2015 09:13:13]]></name>
    <trkseg>
      <trkpt lat="46.14174" lon="-1.16994">
        <ele>4</ele>
        <time>2015-11-09T08:13:13Z</time>
      </trkpt>
      <trkpt lat="46.14174" lon="-1.16994">
        <ele>4</ele>
        <time>2015-11-09T08:13:14Z</time>
      </trkpt>
      <trkpt lat="46.14174" lon="-1.16994">
        <ele>4</ele>
        <time>2015-11-09T08:13:15Z</time>
      </trkpt>
      <trkpt lat="46.14174" lon="-1.16994">
        <ele>4</ele>
        <time>2015-11-09T08:13:16Z</time>
      </trkpt>
      <trkpt lat="46.14173" lon="-1.16995">
        <ele>4</ele>
        <time>2015-11-09T08:13:18Z</time>
      </trkpt>
      <trkpt lat="46.14161" lon="-1.17015">
        <ele>4</ele>
        <time>2015-11-09T08:13:39Z</time>
      </trkpt>
      <trkpt lat="46.14152" lon="-1.17031">
        <ele>4.1</ele>
        <time>2015-11-09T08:13:53Z</time>
      </trkpt>
      <trkpt lat="46.14143" lon="-1.17048">
        <ele>4.6</ele>
        <time>2015-11-09T08:14:08Z</time>
      </trkpt>
      <trkpt lat="46.14129" lon="-1.17063">
        <ele>5</ele>
        <time>2015-11-09T08:14:26Z</time>
      </trkpt>
      <trkpt lat="46.14127" lon="-1.17062">
        <ele>5</ele>
        <time>2015-11-09T08:14:28Z</time>
      </trkpt>
      <trkpt lat="46.14126" lon="-1.17062">
        <ele>5</ele>
        <time>2015-11-09T08:14:29Z</time>
      </trkpt>
      <trkpt lat="46.14118" lon="-1.17065">
        <ele>5</ele>
        <time>2015-11-09T08:14:37Z</time>
      </trkpt>
      <trkpt lat="46.141" lon="-1.17059">
        <ele>5.3</ele>
        <time>2015-11-09T08:14:54Z</time>
      </trkpt>
      <trkpt lat="46.14082" lon="-1.17054">
        <ele>6</ele>
        <time>2015-11-09T08:15:08Z</time>
      </trkpt>
      <trkpt lat="46.14064" lon="-1.17049">
        <ele>6</ele>
        <time>2015-11-09T08:15:22Z</time>
      </trkpt>
      <trkpt lat="46.14047" lon="-1.1705">
        <ele>6</ele>
        <time>2015-11-09T08:15:34Z</time>
      </trkpt>
      <trkpt lat="46.14028" lon="-1.17052">
        <ele>6</ele>
        <time>2015-11-09T08:15:48Z</time>
      </trkpt>
      <trkpt lat="46.14012" lon="-1.17065">
        <ele>6.4</ele>
        <time>2015-11-09T08:16:00Z</time>
      </trkpt>
      <trkpt lat="46.13999" lon="-1.17085">
        <ele>7.1</ele>
        <time>2015-11-09T08:16:14Z</time>
      </trkpt>
      <trkpt lat="46.13995" lon="-1.17091">
        <ele>7.3</ele>
        <time>2015-11-09T08:16:19Z</time>
      </trkpt>
      <trkpt lat="46.1399" lon="-1.171">
        <ele>7.6</ele>
        <time>2015-11-09T08:16:25Z</time>
      </trkpt>
      <trkpt lat="46.13977" lon="-1.1712">
        <ele>8.6</ele>
        <time>2015-11-09T08:16:40Z</time>
      </trkpt>
      <trkpt lat="46.13972" lon="-1.17146">
        <ele>7.8</ele>
        <time>2015-11-09T08:16:52Z</time>
      </trkpt>
      <trkpt lat="46.13968" lon="-1.17172">
        <ele>6.6</ele>
        <time>2015-11-09T08:17:05Z</time>
      </trkpt>
      <trkpt lat="46.13962" lon="-1.17197">
        <ele>5.3</ele>
        <time>2015-11-09T08:17:17Z</time>
      </trkpt>
      <trkpt lat="46.13954" lon="-1.1722">
        <ele>5.6</ele>
        <time>2015-11-09T08:17:31Z</time>
      </trkpt>
      <trkpt lat="46.13946" lon="-1.17245">
        <ele>7.1</ele>
        <time>2015-11-09T08:17:44Z</time>
      </trkpt>
      <trkpt lat="46.13932" lon="-1.17265">
        <ele>6.8</ele>
        <time>2015-11-09T08:17:58Z</time>
      </trkpt>
      <trkpt lat="46.13918" lon="-1.17282">
        <ele>8.1</ele>
        <time>2015-11-09T08:18:11Z</time>
      </trkpt>
      <trkpt lat="46.1391" lon="-1.17306">
        <ele>6.2</ele>
        <time>2015-11-09T08:18:24Z</time>
      </trkpt>
      <trkpt lat="46.13897" lon="-1.17326">
        <ele>6.8</ele>
        <time>2015-11-09T08:18:38Z</time>
      </trkpt>
      <trkpt lat="46.13896" lon="-1.17327">
        <ele>7</ele>
        <time>2015-11-09T08:18:39Z</time>
      </trkpt>
      <trkpt lat="46.13882" lon="-1.17326">
        <ele>8.5</ele>
        <time>2015-11-09T08:18:50Z</time>
      </trkpt>
      <trkpt lat="46.13878" lon="-1.17327">
        <ele>8.4</ele>
        <time>2015-11-09T08:18:53Z</time>
      </trkpt>
      <trkpt lat="46.13861" lon="-1.17321">
        <ele>8.4</ele>
        <time>2015-11-09T08:19:08Z</time>
      </trkpt>
      <trkpt lat="46.13854" lon="-1.17297">
        <ele>7.3</ele>
        <time>2015-11-09T08:19:22Z</time>
      </trkpt>
      <trkpt lat="46.13851" lon="-1.1727">
        <ele>6.7</ele>
        <time>2015-11-09T08:19:36Z</time>
      </trkpt>
      <trkpt lat="46.13848" lon="-1.17252">
        <ele>7.1</ele>
        <time>2015-11-09T08:19:45Z</time>
      </trkpt>
      <trkpt lat="46.13849" lon="-1.17244">
        <ele>7.7</ele>
        <time>2015-11-09T08:19:49Z</time>
      </trkpt>
      <trkpt lat="46.13843" lon="-1.17221">
        <ele>7.4</ele>
        <time>2015-11-09T08:20:02Z</time>
      </trkpt>
      <trkpt lat="46.13845" lon="-1.17195">
        <ele>6.8</ele>
        <time>2015-11-09T08:20:15Z</time>
      </trkpt>
      <trkpt lat="46.13854" lon="-1.17172">
        <ele>7.2</ele>
        <time>2015-11-09T08:20:29Z</time>
      </trkpt>
      <trkpt lat="46.13862" lon="-1.17147">
        <ele>9</ele>
        <time>2015-11-09T08:20:43Z</time>
      </trkpt>
      <trkpt lat="46.13863" lon="-1.1712">
        <ele>9</ele>
        <time>2015-11-09T08:20:57Z</time>
      </trkpt>
      <trkpt lat="46.13858" lon="-1.17094">
        <ele>7.6</ele>
        <time>2015-11-09T08:21:11Z</time>
      </trkpt>
      <trkpt lat="46.13861" lon="-1.17068">
        <ele>7.9</ele>
        <time>2015-11-09T08:21:24Z</time>
      </trkpt>
      <trkpt lat="46.13862" lon="-1.17042">
        <ele>8</ele>
        <time>2015-11-09T08:21:37Z</time>
      </trkpt>
      <trkpt lat="46.13861" lon="-1.17016">
        <ele>7.9</ele>
        <time>2015-11-09T08:21:50Z</time>
      </trkpt>
      <trkpt lat="46.13857" lon="-1.1699">
        <ele>7.2</ele>
        <time>2015-11-09T08:22:04Z</time>
      </trkpt>
      <trkpt lat="46.13855" lon="-1.16964">
        <ele>6.7</ele>
        <time>2015-11-09T08:22:18Z</time>
      </trkpt>
      <trkpt lat="46.13857" lon="-1.16937">
        <ele>6.6</ele>
        <time>2015-11-09T08:22:32Z</time>
      </trkpt>
      <trkpt lat="46.1386" lon="-1.1691">
        <ele>6.1</ele>
        <time>2015-11-09T08:22:45Z</time>
      </trkpt>
      <trkpt lat="46.13862" lon="-1.16885">
        <ele>7.2</ele>
        <time>2015-11-09T08:22:58Z</time>
      </trkpt>
      <trkpt lat="46.13861" lon="-1.16858">
        <ele>8.1</ele>
        <time>2015-11-09T08:23:12Z</time>
      </trkpt>
      <trkpt lat="46.1386" lon="-1.16832">
        <ele>8.5</ele>
        <time>2015-11-09T08:23:26Z</time>
      </trkpt>
      <trkpt lat="46.13859" lon="-1.16804">
        <ele>7.6</ele>
        <time>2015-11-09T08:23:40Z</time>
      </trkpt>
      <trkpt lat="46.13856" lon="-1.16778">
        <ele>7.7</ele>
        <time>2015-11-09T08:23:54Z</time>
      </trkpt>
      <trkpt lat="46.13852" lon="-1.16751">
        <ele>6.6</ele>
        <time>2015-11-09T08:24:08Z</time>
      </trkpt>
      <trkpt lat="46.13852" lon="-1.16725">
        <ele>6.4</ele>
        <time>2015-11-09T08:24:21Z</time>
      </trkpt>
      <trkpt lat="46.13858" lon="-1.16699">
        <ele>8</ele>
        <time>2015-11-09T08:24:35Z</time>
      </trkpt>
      <trkpt lat="46.13861" lon="-1.16672">
        <ele>9</ele>
        <time>2015-11-09T08:24:49Z</time>
      </trkpt>
      <trkpt lat="46.13862" lon="-1.16645">
        <ele>9</ele>
        <time>2015-11-09T08:25:03Z</time>
      </trkpt>
      <trkpt lat="46.13861" lon="-1.16618">
        <ele>9</ele>
        <time>2015-11-09T08:25:17Z</time>
      </trkpt>
      <trkpt lat="46.1386" lon="-1.16592">
        <ele>8.7</ele>
        <time>2015-11-09T08:25:30Z</time>
      </trkpt>
      <trkpt lat="46.13853" lon="-1.16568">
        <ele>8.3</ele>
        <time>2015-11-09T08:25:43Z</time>
      </trkpt>
      <trkpt lat="46.13846" lon="-1.16544">
        <ele>8.7</ele>
        <time>2015-11-09T08:25:56Z</time>
      </trkpt>
      <trkpt lat="46.13839" lon="-1.1652">
        <ele>9</ele>
        <time>2015-11-09T08:26:09Z</time>
      </trkpt>
      <trkpt lat="46.13835" lon="-1.16494">
        <ele>9</ele>
        <time>2015-11-09T08:26:23Z</time>
      </trkpt>
      <trkpt lat="46.13836" lon="-1.16467">
        <ele>9.3</ele>
        <time>2015-11-09T08:26:37Z</time>
      </trkpt>
      <trkpt lat="46.13828" lon="-1.16446">
        <ele>8.6</ele>
        <time>2015-11-09T08:26:49Z</time>
      </trkpt>
      <trkpt lat="46.13818" lon="-1.16424">
        <ele>8.6</ele>
        <time>2015-11-09T08:27:02Z</time>
      </trkpt>
      <trkpt lat="46.13811" lon="-1.16399">
        <ele>9.2</ele>
        <time>2015-11-09T08:27:15Z</time>
      </trkpt>
      <trkpt lat="46.138" lon="-1.16376">
        <ele>7.9</ele>
        <time>2015-11-09T08:27:28Z</time>
      </trkpt>
      <trkpt lat="46.13788" lon="-1.16355">
        <ele>8</ele>
        <time>2015-11-09T08:27:41Z</time>
      </trkpt>
      <trkpt lat="46.13777" lon="-1.16335">
        <ele>8.6</ele>
        <time>2015-11-09T08:27:54Z</time>
      </trkpt>
      <trkpt lat="46.13776" lon="-1.16333">
        <ele>8.5</ele>
        <time>2015-11-09T08:27:55Z</time>
      </trkpt>
      <trkpt lat="46.13779" lon="-1.16306">
        <ele>9</ele>
        <time>2015-11-09T08:28:09Z</time>
      </trkpt>
      <trkpt lat="46.13773" lon="-1.16281">
        <ele>8.5</ele>
        <time>2015-11-09T08:28:22Z</time>
      </trkpt>
      <trkpt lat="46.13763" lon="-1.16258">
        <ele>8.7</ele>
        <time>2015-11-09T08:28:36Z</time>
      </trkpt>
      <trkpt lat="46.13756" lon="-1.16234">
        <ele>8.5</ele>
        <time>2015-11-09T08:28:49Z</time>
      </trkpt>
      <trkpt lat="46.13753" lon="-1.16226">
        <ele>8.2</ele>
        <time>2015-11-09T08:28:54Z</time>
      </trkpt>
      <trkpt lat="46.13746" lon="-1.16215">
        <ele>7.3</ele>
        <time>2015-11-09T08:29:01Z</time>
      </trkpt>
      <trkpt lat="46.1374" lon="-1.16205">
        <ele>6.9</ele>
        <time>2015-11-09T08:29:08Z</time>
      </trkpt>
      <trkpt lat="46.13735" lon="-1.1618">
        <ele>7.7</ele>
        <time>2015-11-09T08:29:21Z</time>
      </trkpt>
      <trkpt lat="46.13735" lon="-1.16153">
        <ele>8.5</ele>
        <time>2015-11-09T08:29:35Z</time>
      </trkpt>
      <trkpt lat="46.13731" lon="-1.16127">
        <ele>6.5</ele>
        <time>2015-11-09T08:29:49Z</time>
      </trkpt>
      <trkpt lat="46.1373" lon="-1.1612">
        <ele>5.4</ele>
        <time>2015-11-09T08:29:53Z</time>
      </trkpt>
      <trkpt lat="46.13741" lon="-1.16099">
        <ele>5.9</ele>
        <time>2015-11-09T08:30:07Z</time>
      </trkpt>
      <trkpt lat="46.13752" lon="-1.16078">
        <ele>7.3</ele>
        <time>2015-11-09T08:30:20Z</time>
      </trkpt>
      <trkpt lat="46.13761" lon="-1.16054">
        <ele>5.5</ele>
        <time>2015-11-09T08:30:33Z</time>
      </trkpt>
      <trkpt lat="46.13766" lon="-1.16029">
        <ele>5.5</ele>
        <time>2015-11-09T08:30:47Z</time>
      </trkpt>
      <trkpt lat="46.1377" lon="-1.16001">
        <ele>6.4</ele>
        <time>2015-11-09T08:31:01Z</time>
      </trkpt>
      <trkpt lat="46.13774" lon="-1.15974">
        <ele>7.1</ele>
        <time>2015-11-09T08:31:15Z</time>
      </trkpt>
      <trkpt lat="46.13779" lon="-1.15947">
        <ele>8</ele>
        <time>2015-11-09T08:31:29Z</time>
      </trkpt>
      <trkpt lat="46.13784" lon="-1.15922">
        <ele>7.4</ele>
        <time>2015-11-09T08:31:42Z</time>
      </trkpt>
      <trkpt lat="46.13787" lon="-1.15896">
        <ele>6.8</ele>
        <time>2015-11-09T08:31:55Z</time>
      </trkpt>
      <trkpt lat="46.1379" lon="-1.15869">
        <ele>6.5</ele>
        <time>2015-11-09T08:32:08Z</time>
      </trkpt>
      <trkpt lat="46.13792" lon="-1.15842">
        <ele>6.6</ele>
        <time>2015-11-09T08:32:21Z</time>
      </trkpt>
      <trkpt lat="46.13791" lon="-1.15816">
        <ele>6.4</ele>
        <time>2015-11-09T08:32:33Z</time>
      </trkpt>
      <trkpt lat="46.13789" lon="-1.15793">
        <ele>6.8</ele>
        <time>2015-11-09T08:32:46Z</time>
      </trkpt>
      <trkpt lat="46.13789" lon="-1.15781">
        <ele>7.3</ele>
        <time>2015-11-09T08:32:53Z</time>
      </trkpt>
      <trkpt lat="46.13788" lon="-1.15755">
        <ele>7.1</ele>
        <time>2015-11-09T08:33:06Z</time>
      </trkpt>
      <trkpt lat="46.13787" lon="-1.15728">
        <ele>7</ele>
        <time>2015-11-09T08:33:19Z</time>
      </trkpt>
      <trkpt lat="46.13787" lon="-1.157">
        <ele>7</ele>
        <time>2015-11-09T08:33:32Z</time>
      </trkpt>
      <trkpt lat="46.13785" lon="-1.15673">
        <ele>6.4</ele>
        <time>2015-11-09T08:33:45Z</time>
      </trkpt>
      <trkpt lat="46.13783" lon="-1.15645">
        <ele>6.2</ele>
        <time>2015-11-09T08:33:58Z</time>
      </trkpt>
      <trkpt lat="46.13782" lon="-1.15617">
        <ele>5.5</ele>
        <time>2015-11-09T08:34:11Z</time>
      </trkpt>
      <trkpt lat="46.13778" lon="-1.1559">
        <ele>5.8</ele>
        <time>2015-11-09T08:34:24Z</time>
      </trkpt>
      <trkpt lat="46.13775" lon="-1.15563">
        <ele>5.6</ele>
        <time>2015-11-09T08:34:37Z</time>
      </trkpt>
      <trkpt lat="46.13774" lon="-1.15536">
        <ele>5.3</ele>
        <time>2015-11-09T08:34:50Z</time>
      </trkpt>
      <trkpt lat="46.1377" lon="-1.1551">
        <ele>4.3</ele>
        <time>2015-11-09T08:35:03Z</time>
      </trkpt>
      <trkpt lat="46.13765" lon="-1.15484">
        <ele>3.9</ele>
        <time>2015-11-09T08:35:16Z</time>
      </trkpt>
      <trkpt lat="46.13759" lon="-1.15457">
        <ele>4.4</ele>
        <time>2015-11-09T08:35:29Z</time>
      </trkpt>
      <trkpt lat="46.13753" lon="-1.15431">
        <ele>5</ele>
        <time>2015-11-09T08:35:42Z</time>
      </trkpt>
      <trkpt lat="46.13747" lon="-1.15406">
        <ele>4.7</ele>
        <time>2015-11-09T08:35:55Z</time>
      </trkpt>
      <trkpt lat="46.13738" lon="-1.15382">
        <ele>4.4</ele>
        <time>2015-11-09T08:36:09Z</time>
      </trkpt>
      <trkpt lat="46.13726" lon="-1.15361">
        <ele>5</ele>
        <time>2015-11-09T08:36:24Z</time>
      </trkpt>
      <trkpt lat="46.13714" lon="-1.15342">
        <ele>3.9</ele>
        <time>2015-11-09T08:36:38Z</time>
      </trkpt>
      <trkpt lat="46.13705" lon="-1.15327">
        <ele>4.1</ele>
        <time>2015-11-09T08:36:48Z</time>
      </trkpt>
      <trkpt lat="46.13702" lon="-1.15324">
        <ele>4.3</ele>
        <time>2015-11-09T08:36:52Z</time>
      </trkpt>
      <trkpt lat="46.13688" lon="-1.15307">
        <ele>4.5</ele>
        <time>2015-11-09T08:37:16Z</time>
      </trkpt>
      <trkpt lat="46.13674" lon="-1.15291">
        <ele>4.2</ele>
        <time>2015-11-09T08:37:29Z</time>
      </trkpt>
      <trkpt lat="46.13659" lon="-1.15276">
        <ele>4.7</ele>
        <time>2015-11-09T08:37:41Z</time>
      </trkpt>
      <trkpt lat="46.13644" lon="-1.1526">
        <ele>4.6</ele>
        <time>2015-11-09T08:37:54Z</time>
      </trkpt>
      <trkpt lat="46.13627" lon="-1.15247">
        <ele>4.5</ele>
        <time>2015-11-09T08:38:08Z</time>
      </trkpt>
      <trkpt lat="46.13625" lon="-1.15245">
        <ele>4.4</ele>
        <time>2015-11-09T08:38:12Z</time>
      </trkpt>
      <trkpt lat="46.13623" lon="-1.15243">
        <ele>4.3</ele>
        <time>2015-11-09T08:38:18Z</time>
      </trkpt>
      <trkpt lat="46.1362" lon="-1.1524">
        <ele>4.2</ele>
        <time>2015-11-09T08:38:22Z</time>
      </trkpt>
      <trkpt lat="46.13604" lon="-1.15228">
        <ele>3.9</ele>
        <time>2015-11-09T08:38:36Z</time>
      </trkpt>
      <trkpt lat="46.13606" lon="-1.15212">
        <ele>4</ele>
        <time>2015-11-09T08:39:12Z</time>
      </trkpt>
      <trkpt lat="46.13622" lon="-1.15198">
        <ele>4</ele>
        <time>2015-11-09T08:39:28Z</time>
      </trkpt>
      <trkpt lat="46.1364" lon="-1.15193">
        <ele>4.1</ele>
        <time>2015-11-09T08:39:44Z</time>
      </trkpt>
      <trkpt lat="46.13643" lon="-1.15191">
        <ele>4.3</ele>
        <time>2015-11-09T08:39:47Z</time>
      </trkpt>
      <trkpt lat="46.13641" lon="-1.15188">
        <ele>4.5</ele>
        <time>2015-11-09T08:40:45Z</time>
      </trkpt>
      <trkpt lat="46.13638" lon="-1.15189">
        <ele>4.4</ele>
        <time>2015-11-09T08:40:49Z</time>
      </trkpt>
      <trkpt lat="46.13623" lon="-1.15205">
        <ele>4</ele>
        <time>2015-11-09T08:41:07Z</time>
      </trkpt>
      <trkpt lat="46.13616" lon="-1.15211">
        <ele>4</ele>
        <time>2015-11-09T08:41:15Z</time>
      </trkpt>
      <trkpt lat="46.13613" lon="-1.15212">
        <ele>4</ele>
        <time>2015-11-09T08:41:18Z</time>
      </trkpt>
      <trkpt lat="46.13601" lon="-1.15222">
        <ele>4</ele>
        <time>2015-11-09T08:41:35Z</time>
      </trkpt>
      <trkpt lat="46.13597" lon="-1.15223">
        <ele>4</ele>
        <time>2015-11-09T08:42:49Z</time>
      </trkpt>
      <trkpt lat="46.13595" lon="-1.1522">
        <ele>4</ele>
        <time>2015-11-09T08:43:00Z</time>
      </trkpt>
      <trkpt lat="46.13578" lon="-1.15209">
        <ele>3.9</ele>
        <time>2015-11-09T08:43:14Z</time>
      </trkpt>
      <trkpt lat="46.13563" lon="-1.15195">
        <ele>4.7</ele>
        <time>2015-11-09T08:43:28Z</time>
      </trkpt>
      <trkpt lat="46.13547" lon="-1.15182">
        <ele>4.2</ele>
        <time>2015-11-09T08:43:43Z</time>
      </trkpt>
      <trkpt lat="46.13531" lon="-1.15167">
        <ele>4.9</ele>
        <time>2015-11-09T08:43:59Z</time>
      </trkpt>
      <trkpt lat="46.13515" lon="-1.15153">
        <ele>4.3</ele>
        <time>2015-11-09T08:44:14Z</time>
      </trkpt>
      <trkpt lat="46.13498" lon="-1.15141">
        <ele>4.8</ele>
        <time>2015-11-09T08:44:29Z</time>
      </trkpt>
      <trkpt lat="46.13481" lon="-1.15129">
        <ele>4.3</ele>
        <time>2015-11-09T08:44:43Z</time>
      </trkpt>
      <trkpt lat="46.13464" lon="-1.15119">
        <ele>4.1</ele>
        <time>2015-11-09T08:44:57Z</time>
      </trkpt>
      <trkpt lat="46.13449" lon="-1.15102">
        <ele>4.6</ele>
        <time>2015-11-09T08:45:09Z</time>
      </trkpt>
      <trkpt lat="46.13435" lon="-1.15085">
        <ele>4</ele>
        <time>2015-11-09T08:45:22Z</time>
      </trkpt>
      <trkpt lat="46.1342" lon="-1.15068">
        <ele>4</ele>
        <time>2015-11-09T08:45:34Z</time>
      </trkpt>
      <trkpt lat="46.13408" lon="-1.15048">
        <ele>3.9</ele>
        <time>2015-11-09T08:45:47Z</time>
      </trkpt>
      <trkpt lat="46.13395" lon="-1.15027">
        <ele>4.8</ele>
        <time>2015-11-09T08:46:00Z</time>
      </trkpt>
      <trkpt lat="46.13383" lon="-1.15007">
        <ele>4.1</ele>
        <time>2015-11-09T08:46:12Z</time>
      </trkpt>
      <trkpt lat="46.1337" lon="-1.14986">
        <ele>4.3</ele>
        <time>2015-11-09T08:46:24Z</time>
      </trkpt>
      <trkpt lat="46.13359" lon="-1.14965">
        <ele>4.6</ele>
        <time>2015-11-09T08:46:36Z</time>
      </trkpt>
      <trkpt lat="46.13347" lon="-1.14945">
        <ele>4</ele>
        <time>2015-11-09T08:46:48Z</time>
      </trkpt>
      <trkpt lat="46.13334" lon="-1.14924">
        <ele>4.7</ele>
        <time>2015-11-09T08:47:00Z</time>
      </trkpt>
      <trkpt lat="46.13322" lon="-1.14904">
        <ele>4.1</ele>
        <time>2015-11-09T08:47:12Z</time>
      </trkpt>
      <trkpt lat="46.13307" lon="-1.14889">
        <ele>5</ele>
        <time>2015-11-09T08:47:24Z</time>
      </trkpt>
      <trkpt lat="46.1329" lon="-1.14876">
        <ele>4.5</ele>
        <time>2015-11-09T08:47:36Z</time>
      </trkpt>
      <trkpt lat="46.13275" lon="-1.14861">
        <ele>6.7</ele>
        <time>2015-11-09T08:47:49Z</time>
      </trkpt>
      <trkpt lat="46.13275" lon="-1.1486">
        <ele>6.6</ele>
        <time>2015-11-09T08:47:50Z</time>
      </trkpt>
      <trkpt lat="46.13258" lon="-1.14848">
        <ele>4.3</ele>
        <time>2015-11-09T08:48:02Z</time>
      </trkpt>
      <trkpt lat="46.1324" lon="-1.14843">
        <ele>4.1</ele>
        <time>2015-11-09T08:48:15Z</time>
      </trkpt>
      <trkpt lat="46.13221" lon="-1.14839">
        <ele>4.6</ele>
        <time>2015-11-09T08:48:28Z</time>
      </trkpt>
      <trkpt lat="46.13209" lon="-1.14836">
        <ele>4.8</ele>
        <time>2015-11-09T08:48:37Z</time>
      </trkpt>
      <trkpt lat="46.13204" lon="-1.14835">
        <ele>4.9</ele>
        <time>2015-11-09T08:48:41Z</time>
      </trkpt>
      <trkpt lat="46.13185" lon="-1.14831">
        <ele>4.8</ele>
        <time>2015-11-09T08:48:54Z</time>
      </trkpt>
      <trkpt lat="46.13167" lon="-1.14828">
        <ele>4.8</ele>
        <time>2015-11-09T08:49:07Z</time>
      </trkpt>
      <trkpt lat="46.13148" lon="-1.14827">
        <ele>4.1</ele>
        <time>2015-11-09T08:49:20Z</time>
      </trkpt>
      <trkpt lat="46.13129" lon="-1.14826">
        <ele>3.7</ele>
        <time>2015-11-09T08:49:34Z</time>
      </trkpt>
      <trkpt lat="46.13111" lon="-1.14834">
        <ele>4</ele>
        <time>2015-11-09T08:49:48Z</time>
      </trkpt>
      <trkpt lat="46.13094" lon="-1.14842">
        <ele>3.9</ele>
        <time>2015-11-09T08:50:00Z</time>
      </trkpt>
      <trkpt lat="46.13091" lon="-1.14843">
        <ele>3.9</ele>
        <time>2015-11-09T08:50:02Z</time>
      </trkpt>
      <trkpt lat="46.13086" lon="-1.14846">
        <ele>4</ele>
        <time>2015-11-09T08:50:06Z</time>
      </trkpt>
      <trkpt lat="46.13073" lon="-1.14866">
        <ele>4.5</ele>
        <time>2015-11-09T08:50:20Z</time>
      </trkpt>
      <trkpt lat="46.13059" lon="-1.14884">
        <ele>4.8</ele>
        <time>2015-11-09T08:50:33Z</time>
      </trkpt>
      <trkpt lat="46.13041" lon="-1.14886">
        <ele>4.7</ele>
        <time>2015-11-09T08:50:47Z</time>
      </trkpt>
      <trkpt lat="46.13023" lon="-1.14877">
        <ele>4.6</ele>
        <time>2015-11-09T08:51:01Z</time>
      </trkpt>
      <trkpt lat="46.13005" lon="-1.14868">
        <ele>5.1</ele>
        <time>2015-11-09T08:51:14Z</time>
      </trkpt>
      <trkpt lat="46.12988" lon="-1.14858">
        <ele>5.2</ele>
        <time>2015-11-09T08:51:26Z</time>
      </trkpt>
      <trkpt lat="46.1297" lon="-1.1485">
        <ele>4.7</ele>
        <time>2015-11-09T08:51:40Z</time>
      </trkpt>
      <trkpt lat="46.12953" lon="-1.14838">
        <ele>6</ele>
        <time>2015-11-09T08:51:53Z</time>
      </trkpt>
      <trkpt lat="46.12937" lon="-1.14822">
        <ele>6.2</ele>
        <time>2015-11-09T08:52:06Z</time>
      </trkpt>
      <trkpt lat="46.12923" lon="-1.14807">
        <ele>6.8</ele>
        <time>2015-11-09T08:52:19Z</time>
      </trkpt>
      <trkpt lat="46.12907" lon="-1.14793">
        <ele>6</ele>
        <time>2015-11-09T08:52:32Z</time>
      </trkpt>
      <trkpt lat="46.12892" lon="-1.14778">
        <ele>7</ele>
        <time>2015-11-09T08:52:45Z</time>
      </trkpt>
      <trkpt lat="46.12878" lon="-1.1476">
        <ele>5.8</ele>
        <time>2015-11-09T08:52:59Z</time>
      </trkpt>
      <trkpt lat="46.12864" lon="-1.14744">
        <ele>5.6</ele>
        <time>2015-11-09T08:53:12Z</time>
      </trkpt>
      <trkpt lat="46.12849" lon="-1.14726">
        <ele>5.4</ele>
        <time>2015-11-09T08:53:25Z</time>
      </trkpt>
      <trkpt lat="46.12837" lon="-1.14706">
        <ele>6.3</ele>
        <time>2015-11-09T08:53:38Z</time>
      </trkpt>
      <trkpt lat="46.12822" lon="-1.14691">
        <ele>5.9</ele>
        <time>2015-11-09T08:53:51Z</time>
      </trkpt>
      <trkpt lat="46.12807" lon="-1.14674">
        <ele>5.8</ele>
        <time>2015-11-09T08:54:05Z</time>
      </trkpt>
      <trkpt lat="46.12794" lon="-1.14655">
        <ele>6.2</ele>
        <time>2015-11-09T08:54:19Z</time>
      </trkpt>
      <trkpt lat="46.12779" lon="-1.1464">
        <ele>7.8</ele>
        <time>2015-11-09T08:54:34Z</time>
      </trkpt>
      <trkpt lat="46.12766" lon="-1.14622">
        <ele>5.8</ele>
        <time>2015-11-09T08:54:47Z</time>
      </trkpt>
      <trkpt lat="46.12754" lon="-1.146">
        <ele>5.7</ele>
        <time>2015-11-09T08:55:01Z</time>
      </trkpt>
      <trkpt lat="46.12746" lon="-1.14577">
        <ele>6.3</ele>
        <time>2015-11-09T08:55:15Z</time>
      </trkpt>
      <trkpt lat="46.1274" lon="-1.14552">
        <ele>5.1</ele>
        <time>2015-11-09T08:55:29Z</time>
      </trkpt>
      <trkpt lat="46.12736" lon="-1.14524">
        <ele>4.4</ele>
        <time>2015-11-09T08:55:43Z</time>
      </trkpt>
      <trkpt lat="46.12733" lon="-1.14498">
        <ele>3.6</ele>
        <time>2015-11-09T08:55:57Z</time>
      </trkpt>
      <trkpt lat="46.12731" lon="-1.14472">
        <ele>3.9</ele>
        <time>2015-11-09T08:56:11Z</time>
      </trkpt>
      <trkpt lat="46.12727" lon="-1.14445">
        <ele>5.4</ele>
        <time>2015-11-09T08:56:25Z</time>
      </trkpt>
      <trkpt lat="46.12724" lon="-1.14419">
        <ele>5.7</ele>
        <time>2015-11-09T08:56:39Z</time>
      </trkpt>
      <trkpt lat="46.12722" lon="-1.14392">
        <ele>5</ele>
        <time>2015-11-09T08:56:53Z</time>
      </trkpt>
      <trkpt lat="46.1272" lon="-1.14366">
        <ele>5.4</ele>
        <time>2015-11-09T08:57:07Z</time>
      </trkpt>
      <trkpt lat="46.12716" lon="-1.1434">
        <ele>5.1</ele>
        <time>2015-11-09T08:57:20Z</time>
      </trkpt>
      <trkpt lat="46.12713" lon="-1.14313">
        <ele>4.7</ele>
        <time>2015-11-09T08:57:34Z</time>
      </trkpt>
      <trkpt lat="46.12707" lon="-1.14288">
        <ele>3.8</ele>
        <time>2015-11-09T08:57:47Z</time>
      </trkpt>
      <trkpt lat="46.12698" lon="-1.14264">
        <ele>5</ele>
        <time>2015-11-09T08:58:00Z</time>
      </trkpt>
      <trkpt lat="46.12691" lon="-1.14239">
        <ele>6.4</ele>
        <time>2015-11-09T08:58:13Z</time>
      </trkpt>
      <trkpt lat="46.12686" lon="-1.14213">
        <ele>5.3</ele>
        <time>2015-11-09T08:58:28Z</time>
      </trkpt>
      <trkpt lat="46.12677" lon="-1.1419">
        <ele>4.2</ele>
        <time>2015-11-09T08:58:43Z</time>
      </trkpt>
      <trkpt lat="46.1268" lon="-1.14164">
        <ele>4.5</ele>
        <time>2015-11-09T08:58:57Z</time>
      </trkpt>
      <trkpt lat="46.12685" lon="-1.14141">
        <ele>4.7</ele>
        <time>2015-11-09T08:59:09Z</time>
      </trkpt>
      <trkpt lat="46.1269" lon="-1.14131">
        <ele>4.8</ele>
        <time>2015-11-09T08:59:15Z</time>
      </trkpt>
      <trkpt lat="46.12692" lon="-1.14106">
        <ele>4.9</ele>
        <time>2015-11-09T08:59:27Z</time>
      </trkpt>
      <trkpt lat="46.12694" lon="-1.1408">
        <ele>5</ele>
        <time>2015-11-09T08:59:40Z</time>
      </trkpt>
      <trkpt lat="46.12705" lon="-1.14057">
        <ele>5.4</ele>
        <time>2015-11-09T08:59:54Z</time>
      </trkpt>
      <trkpt lat="46.1271" lon="-1.14048">
        <ele>5.4</ele>
        <time>2015-11-09T09:00:00Z</time>
      </trkpt>
      <trkpt lat="46.12707" lon="-1.14021">
        <ele>4.7</ele>
        <time>2015-11-09T09:00:13Z</time>
      </trkpt>
      <trkpt lat="46.12709" lon="-1.13996">
        <ele>4.2</ele>
        <time>2015-11-09T09:00:26Z</time>
      </trkpt>
      <trkpt lat="46.12715" lon="-1.1397">
        <ele>4.9</ele>
        <time>2015-11-09T09:00:40Z</time>
      </trkpt>
      <trkpt lat="46.12723" lon="-1.13944">
        <ele>5</ele>
        <time>2015-11-09T09:00:53Z</time>
      </trkpt>
      <trkpt lat="46.12731" lon="-1.13919">
        <ele>4.1</ele>
        <time>2015-11-09T09:01:06Z</time>
      </trkpt>
      <trkpt lat="46.12737" lon="-1.13893">
        <ele>4.1</ele>
        <time>2015-11-09T09:01:19Z</time>
      </trkpt>
      <trkpt lat="46.1274" lon="-1.13868">
        <ele>4.5</ele>
        <time>2015-11-09T09:01:32Z</time>
      </trkpt>
      <trkpt lat="46.1274" lon="-1.13862">
        <ele>4.6</ele>
        <time>2015-11-09T09:01:35Z</time>
      </trkpt>
      <trkpt lat="46.12743" lon="-1.13835">
        <ele>5</ele>
        <time>2015-11-09T09:01:49Z</time>
      </trkpt>
      <trkpt lat="46.12743" lon="-1.13809">
        <ele>4.3</ele>
        <time>2015-11-09T09:02:02Z</time>
      </trkpt>
      <trkpt lat="46.12745" lon="-1.13783">
        <ele>4.4</ele>
        <time>2015-11-09T09:02:15Z</time>
      </trkpt>
      <trkpt lat="46.1274" lon="-1.13756">
        <ele>4</ele>
        <time>2015-11-09T09:02:28Z</time>
      </trkpt>
      <trkpt lat="46.12737" lon="-1.1373">
        <ele>4</ele>
        <time>2015-11-09T09:02:41Z</time>
      </trkpt>
      <trkpt lat="46.12736" lon="-1.13703">
        <ele>4.3</ele>
        <time>2015-11-09T09:02:54Z</time>
      </trkpt>
      <trkpt lat="46.12732" lon="-1.13677">
        <ele>4.4</ele>
        <time>2015-11-09T09:03:07Z</time>
      </trkpt>
      <trkpt lat="46.12728" lon="-1.13652">
        <ele>4.7</ele>
        <time>2015-11-09T09:03:20Z</time>
      </trkpt>
      <trkpt lat="46.12721" lon="-1.13626">
        <ele>4.8</ele>
        <time>2015-11-09T09:03:33Z</time>
      </trkpt>
      <trkpt lat="46.12713" lon="-1.136">
        <ele>4.2</ele>
        <time>2015-11-09T09:03:46Z</time>
      </trkpt>
      <trkpt lat="46.12706" lon="-1.13574">
        <ele>4</ele>
        <time>2015-11-09T09:03:59Z</time>
      </trkpt>
      <trkpt lat="46.12697" lon="-1.1355">
        <ele>4.3</ele>
        <time>2015-11-09T09:04:12Z</time>
      </trkpt>
      <trkpt lat="46.12689" lon="-1.13526">
        <ele>4.8</ele>
        <time>2015-11-09T09:04:26Z</time>
      </trkpt>
      <trkpt lat="46.12682" lon="-1.13502">
        <ele>4.5</ele>
        <time>2015-11-09T09:04:39Z</time>
      </trkpt>
      <trkpt lat="46.12676" lon="-1.13477">
        <ele>4.1</ele>
        <time>2015-11-09T09:04:51Z</time>
      </trkpt>
      <trkpt lat="46.12672" lon="-1.13451">
        <ele>4</ele>
        <time>2015-11-09T09:05:04Z</time>
      </trkpt>
      <trkpt lat="46.12669" lon="-1.13425">
        <ele>4</ele>
        <time>2015-11-09T09:05:17Z</time>
      </trkpt>
      <trkpt lat="46.12668" lon="-1.13398">
        <ele>4</ele>
        <time>2015-11-09T09:05:30Z</time>
      </trkpt>
      <trkpt lat="46.12672" lon="-1.13372">
        <ele>4</ele>
        <time>2015-11-09T09:05:43Z</time>
      </trkpt>
      <trkpt lat="46.12674" lon="-1.13345">
        <ele>4</ele>
        <time>2015-11-09T09:05:56Z</time>
      </trkpt>
      <trkpt lat="46.12677" lon="-1.13318">
        <ele>4</ele>
        <time>2015-11-09T09:06:09Z</time>
      </trkpt>
      <trkpt lat="46.12682" lon="-1.13293">
        <ele>4</ele>
        <time>2015-11-09T09:06:22Z</time>
      </trkpt>
      <trkpt lat="46.12689" lon="-1.13267">
        <ele>4</ele>
        <time>2015-11-09T09:06:35Z</time>
      </trkpt>
      <trkpt lat="46.12695" lon="-1.13241">
        <ele>4</ele>
        <time>2015-11-09T09:06:48Z</time>
      </trkpt>
      <trkpt lat="46.127" lon="-1.13216">
        <ele>4</ele>
        <time>2015-11-09T09:07:00Z</time>
      </trkpt>
      <trkpt lat="46.12704" lon="-1.1319">
        <ele>4</ele>
        <time>2015-11-09T09:07:13Z</time>
      </trkpt>
      <trkpt lat="46.12708" lon="-1.13163">
        <ele>4</ele>
        <time>2015-11-09T09:07:26Z</time>
      </trkpt>
      <trkpt lat="46.12711" lon="-1.13147">
        <ele>4</ele>
        <time>2015-11-09T09:07:34Z</time>
      </trkpt>
      <trkpt lat="46.12711" lon="-1.13136">
        <ele>4</ele>
        <time>2015-11-09T09:07:39Z</time>
      </trkpt>
      <trkpt lat="46.12714" lon="-1.13109">
        <ele>4</ele>
        <time>2015-11-09T09:07:51Z</time>
      </trkpt>
      <trkpt lat="46.12714" lon="-1.13107">
        <ele>4</ele>
        <time>2015-11-09T09:07:52Z</time>
      </trkpt>
      <trkpt lat="46.12711" lon="-1.13096">
        <ele>3.8</ele>
        <time>2015-11-09T09:07:57Z</time>
      </trkpt>
      <trkpt lat="46.12707" lon="-1.13079">
        <ele>3.5</ele>
        <time>2015-11-09T09:08:08Z</time>
      </trkpt>
      <trkpt lat="46.12705" lon="-1.13075">
        <ele>3.4</ele>
        <time>2015-11-09T09:10:45Z</time>
      </trkpt>
      <trkpt lat="46.12704" lon="-1.13068">
        <ele>3.3</ele>
        <time>2015-11-09T09:13:24Z</time>
      </trkpt>
      <trkpt lat="46.12703" lon="-1.13063">
        <ele>3.3</ele>
        <time>2015-11-09T09:13:28Z</time>
      </trkpt>
      <trkpt lat="46.12701" lon="-1.13055">
        <ele>3.2</ele>
        <time>2015-11-09T09:15:50Z</time>
      </trkpt>
      <trkpt lat="46.12703" lon="-1.13054">
        <ele>3.3</ele>
        <time>2015-11-09T09:16:32Z</time>
      </trkpt>
      <trkpt lat="46.12705" lon="-1.13032">
        <ele>3.4</ele>
        <time>2015-11-09T09:17:08Z</time>
      </trkpt>
      <trkpt lat="46.12708" lon="-1.13007">
        <ele>3.1</ele>
        <time>2015-11-09T09:17:22Z</time>
      </trkpt>
      <trkpt lat="46.12708" lon="-1.12981">
        <ele>3</ele>
        <time>2015-11-09T09:17:35Z</time>
      </trkpt>
      <trkpt lat="46.12705" lon="-1.12953">
        <ele>3.3</ele>
        <time>2015-11-09T09:17:49Z</time>
      </trkpt>
      <trkpt lat="46.12701" lon="-1.12928">
        <ele>3.7</ele>
        <time>2015-11-09T09:18:01Z</time>
      </trkpt>
      <trkpt lat="46.12696" lon="-1.12902">
        <ele>4</ele>
        <time>2015-11-09T09:18:14Z</time>
      </trkpt>
      <trkpt lat="46.12691" lon="-1.12877">
        <ele>3.9</ele>
        <time>2015-11-09T09:18:27Z</time>
      </trkpt>
      <trkpt lat="46.12683" lon="-1.12852">
        <ele>3.3</ele>
        <time>2015-11-09T09:18:40Z</time>
      </trkpt>
      <trkpt lat="46.12674" lon="-1.12827">
        <ele>3.4</ele>
        <time>2015-11-09T09:18:53Z</time>
      </trkpt>
      <trkpt lat="46.12666" lon="-1.12804">
        <ele>3.9</ele>
        <time>2015-11-09T09:19:05Z</time>
      </trkpt>
      <trkpt lat="46.12656" lon="-1.12782">
        <ele>3.9</ele>
        <time>2015-11-09T09:19:18Z</time>
      </trkpt>
      <trkpt lat="46.12643" lon="-1.12761">
        <ele>4.6</ele>
        <time>2015-11-09T09:19:30Z</time>
      </trkpt>
      <trkpt lat="46.12632" lon="-1.12744">
        <ele>4.6</ele>
        <time>2015-11-09T09:19:41Z</time>
      </trkpt>
      <trkpt lat="46.12619" lon="-1.12725">
        <ele>4.9</ele>
        <time>2015-11-09T09:19:54Z</time>
      </trkpt>
      <trkpt lat="46.12604" lon="-1.1271">
        <ele>4.7</ele>
        <time>2015-11-09T09:20:07Z</time>
      </trkpt>
      <trkpt lat="46.12587" lon="-1.12698">
        <ele>4.8</ele>
        <time>2015-11-09T09:20:19Z</time>
      </trkpt>
      <trkpt lat="46.12569" lon="-1.12689">
        <ele>4.7</ele>
        <time>2015-11-09T09:20:32Z</time>
      </trkpt>
      <trkpt lat="46.1255" lon="-1.12685">
        <ele>4.4</ele>
        <time>2015-11-09T09:20:46Z</time>
      </trkpt>
      <trkpt lat="46.12549" lon="-1.12686">
        <ele>4.3</ele>
        <time>2015-11-09T09:20:47Z</time>
      </trkpt>
      <trkpt lat="46.12532" lon="-1.12695">
        <ele>2.3</ele>
        <time>2015-11-09T09:21:02Z</time>
      </trkpt>
      <trkpt lat="46.12513" lon="-1.12696">
        <ele>2</ele>
        <time>2015-11-09T09:21:16Z</time>
      </trkpt>
      <trkpt lat="46.12496" lon="-1.12687">
        <ele>2.2</ele>
        <time>2015-11-09T09:21:28Z</time>
      </trkpt>
      <trkpt lat="46.12478" lon="-1.12679">
        <ele>2.1</ele>
        <time>2015-11-09T09:21:41Z</time>
      </trkpt>
      <trkpt lat="46.12461" lon="-1.1267">
        <ele>2</ele>
        <time>2015-11-09T09:21:53Z</time>
      </trkpt>
      <trkpt lat="46.12443" lon="-1.12662">
        <ele>2.1</ele>
        <time>2015-11-09T09:22:06Z</time>
      </trkpt>
      <trkpt lat="46.12425" lon="-1.12654">
        <ele>2.1</ele>
        <time>2015-11-09T09:22:18Z</time>
      </trkpt>
      <trkpt lat="46.12406" lon="-1.12647">
        <ele>2.2</ele>
        <time>2015-11-09T09:22:32Z</time>
      </trkpt>
      <trkpt lat="46.12388" lon="-1.12637">
        <ele>2.1</ele>
        <time>2015-11-09T09:22:44Z</time>
      </trkpt>
      <trkpt lat="46.1237" lon="-1.12628">
        <ele>2.1</ele>
        <time>2015-11-09T09:22:57Z</time>
      </trkpt>
      <trkpt lat="46.12353" lon="-1.12619">
        <ele>2.2</ele>
        <time>2015-11-09T09:23:09Z</time>
      </trkpt>
      <trkpt lat="46.12335" lon="-1.12611">
        <ele>2.1</ele>
        <time>2015-11-09T09:23:22Z</time>
      </trkpt>
      <trkpt lat="46.12316" lon="-1.12604">
        <ele>2.4</ele>
        <time>2015-11-09T09:23:35Z</time>
      </trkpt>
      <trkpt lat="46.12298" lon="-1.12597">
        <ele>2.2</ele>
        <time>2015-11-09T09:23:48Z</time>
      </trkpt>
      <trkpt lat="46.12293" lon="-1.12594">
        <ele>2.2</ele>
        <time>2015-11-09T09:23:52Z</time>
      </trkpt>
      <trkpt lat="46.12275" lon="-1.12585">
        <ele>1.9</ele>
        <time>2015-11-09T09:24:04Z</time>
      </trkpt>
      <trkpt lat="46.12256" lon="-1.12579">
        <ele>2.2</ele>
        <time>2015-11-09T09:24:17Z</time>
      </trkpt>
      <trkpt lat="46.12239" lon="-1.12572">
        <ele>2.2</ele>
        <time>2015-11-09T09:24:29Z</time>
      </trkpt>
      <trkpt lat="46.1222" lon="-1.12565">
        <ele>2.3</ele>
        <time>2015-11-09T09:24:42Z</time>
      </trkpt>
      <trkpt lat="46.12202" lon="-1.12559">
        <ele>2.1</ele>
        <time>2015-11-09T09:24:55Z</time>
      </trkpt>
      <trkpt lat="46.12183" lon="-1.12552">
        <ele>2.2</ele>
        <time>2015-11-09T09:25:08Z</time>
      </trkpt>
      <trkpt lat="46.12166" lon="-1.12545">
        <ele>2.4</ele>
        <time>2015-11-09T09:25:20Z</time>
      </trkpt>
      <trkpt lat="46.12147" lon="-1.12539">
        <ele>2.3</ele>
        <time>2015-11-09T09:25:33Z</time>
      </trkpt>
      <trkpt lat="46.12129" lon="-1.12535">
        <ele>2.2</ele>
        <time>2015-11-09T09:25:45Z</time>
      </trkpt>
      <trkpt lat="46.1211" lon="-1.1253">
        <ele>1.9</ele>
        <time>2015-11-09T09:25:58Z</time>
      </trkpt>
      <trkpt lat="46.12092" lon="-1.12522">
        <ele>2.2</ele>
        <time>2015-11-09T09:26:10Z</time>
      </trkpt>
      <trkpt lat="46.12075" lon="-1.12517">
        <ele>2.2</ele>
        <time>2015-11-09T09:26:22Z</time>
      </trkpt>
      <trkpt lat="46.12057" lon="-1.12511">
        <ele>2.2</ele>
        <time>2015-11-09T09:26:34Z</time>
      </trkpt>
      <trkpt lat="46.12038" lon="-1.12506">
        <ele>2.1</ele>
        <time>2015-11-09T09:26:47Z</time>
      </trkpt>
      <trkpt lat="46.1202" lon="-1.12499">
        <ele>2</ele>
        <time>2015-11-09T09:26:59Z</time>
      </trkpt>
      <trkpt lat="46.12002" lon="-1.12493">
        <ele>2.3</ele>
        <time>2015-11-09T09:27:11Z</time>
      </trkpt>
      <trkpt lat="46.11983" lon="-1.12486">
        <ele>2.2</ele>
        <time>2015-11-09T09:27:24Z</time>
      </trkpt>
      <trkpt lat="46.11965" lon="-1.1248">
        <ele>2.3</ele>
        <time>2015-11-09T09:27:37Z</time>
      </trkpt>
      <trkpt lat="46.11946" lon="-1.12476">
        <ele>1.9</ele>
        <time>2015-11-09T09:27:51Z</time>
      </trkpt>
      <trkpt lat="46.11938" lon="-1.12474">
        <ele>1.9</ele>
        <time>2015-11-09T09:27:57Z</time>
      </trkpt>
      <trkpt lat="46.11922" lon="-1.1247">
        <ele>2.1</ele>
        <time>2015-11-09T09:28:09Z</time>
      </trkpt>
      <trkpt lat="46.11904" lon="-1.12465">
        <ele>1.9</ele>
        <time>2015-11-09T09:28:20Z</time>
      </trkpt>
      <trkpt lat="46.11885" lon="-1.1246">
        <ele>1.9</ele>
        <time>2015-11-09T09:28:32Z</time>
      </trkpt>
      <trkpt lat="46.11867" lon="-1.12456">
        <ele>2.2</ele>
        <time>2015-11-09T09:28:45Z</time>
      </trkpt>
      <trkpt lat="46.11847" lon="-1.12452">
        <ele>2.1</ele>
        <time>2015-11-09T09:28:59Z</time>
      </trkpt>
      <trkpt lat="46.11828" lon="-1.1245">
        <ele>1.8</ele>
        <time>2015-11-09T09:29:12Z</time>
      </trkpt>
      <trkpt lat="46.1181" lon="-1.12446">
        <ele>1.9</ele>
        <time>2015-11-09T09:29:24Z</time>
      </trkpt>
      <trkpt lat="46.11791" lon="-1.12443">
        <ele>2</ele>
        <time>2015-11-09T09:29:37Z</time>
      </trkpt>
      <trkpt lat="46.11772" lon="-1.1244">
        <ele>2.1</ele>
        <time>2015-11-09T09:29:50Z</time>
      </trkpt>
      <trkpt lat="46.11753" lon="-1.12438">
        <ele>2.2</ele>
        <time>2015-11-09T09:30:02Z</time>
      </trkpt>
      <trkpt lat="46.11735" lon="-1.12436">
        <ele>1.9</ele>
        <time>2015-11-09T09:30:14Z</time>
      </trkpt>
      <trkpt lat="46.11716" lon="-1.12434">
        <ele>1.7</ele>
        <time>2015-11-09T09:30:27Z</time>
      </trkpt>
      <trkpt lat="46.11696" lon="-1.1243">
        <ele>1.5</ele>
        <time>2015-11-09T09:30:41Z</time>
      </trkpt>
      <trkpt lat="46.11678" lon="-1.12426">
        <ele>1.7</ele>
        <time>2015-11-09T09:30:55Z</time>
      </trkpt>
      <trkpt lat="46.11659" lon="-1.12424">
        <ele>1.7</ele>
        <time>2015-11-09T09:31:08Z</time>
      </trkpt>
      <trkpt lat="46.11639" lon="-1.12422">
        <ele>1.8</ele>
        <time>2015-11-09T09:31:21Z</time>
      </trkpt>
      <trkpt lat="46.1162" lon="-1.12421">
        <ele>2</ele>
        <time>2015-11-09T09:31:34Z</time>
      </trkpt>
      <trkpt lat="46.11602" lon="-1.12418">
        <ele>2</ele>
        <time>2015-11-09T09:31:47Z</time>
      </trkpt>
      <trkpt lat="46.11583" lon="-1.12416">
        <ele>2</ele>
        <time>2015-11-09T09:32:00Z</time>
      </trkpt>
      <trkpt lat="46.11565" lon="-1.12415">
        <ele>2.1</ele>
        <time>2015-11-09T09:32:13Z</time>
      </trkpt>
      <trkpt lat="46.11546" lon="-1.12415">
        <ele>2.1</ele>
        <time>2015-11-09T09:32:26Z</time>
      </trkpt>
      <trkpt lat="46.11528" lon="-1.12414">
        <ele>2.1</ele>
        <time>2015-11-09T09:32:38Z</time>
      </trkpt>
      <trkpt lat="46.11509" lon="-1.12414">
        <ele>2.1</ele>
        <time>2015-11-09T09:32:51Z</time>
      </trkpt>
      <trkpt lat="46.11491" lon="-1.12414">
        <ele>1.8</ele>
        <time>2015-11-09T09:33:04Z</time>
      </trkpt>
      <trkpt lat="46.11472" lon="-1.12414">
        <ele>1.2</ele>
        <time>2015-11-09T09:33:17Z</time>
      </trkpt>
      <trkpt lat="46.11453" lon="-1.12414">
        <ele>1.2</ele>
        <time>2015-11-09T09:33:31Z</time>
      </trkpt>
      <trkpt lat="46.11434" lon="-1.12413">
        <ele>1.3</ele>
        <time>2015-11-09T09:33:44Z</time>
      </trkpt>
      <trkpt lat="46.11415" lon="-1.12413">
        <ele>1.5</ele>
        <time>2015-11-09T09:33:57Z</time>
      </trkpt>
      <trkpt lat="46.11396" lon="-1.12414">
        <ele>2</ele>
        <time>2015-11-09T09:34:10Z</time>
      </trkpt>
      <trkpt lat="46.11378" lon="-1.12416">
        <ele>2</ele>
        <time>2015-11-09T09:34:24Z</time>
      </trkpt>
      <trkpt lat="46.11359" lon="-1.12417">
        <ele>2</ele>
        <time>2015-11-09T09:34:37Z</time>
      </trkpt>
      <trkpt lat="46.1134" lon="-1.12414">
        <ele>2.2</ele>
        <time>2015-11-09T09:34:50Z</time>
      </trkpt>
      <trkpt lat="46.11329" lon="-1.12415">
        <ele>2.3</ele>
        <time>2015-11-09T09:35:02Z</time>
      </trkpt>
      <trkpt lat="46.11331" lon="-1.12417">
        <ele>2.1</ele>
        <time>2015-11-09T09:35:35Z</time>
      </trkpt>
      <trkpt lat="46.11338" lon="-1.1242">
        <ele>1.9</ele>
        <time>2015-11-09T09:35:41Z</time>
      </trkpt>
      <trkpt lat="46.11356" lon="-1.12419">
        <ele>1.9</ele>
        <time>2015-11-09T09:36:04Z</time>
      </trkpt>
      <trkpt lat="46.11375" lon="-1.12415">
        <ele>2.1</ele>
        <time>2015-11-09T09:36:20Z</time>
      </trkpt>
      <trkpt lat="46.11393" lon="-1.12413">
        <ele>2.2</ele>
        <time>2015-11-09T09:36:33Z</time>
      </trkpt>
      <trkpt lat="46.11411" lon="-1.12411">
        <ele>1.8</ele>
        <time>2015-11-09T09:36:45Z</time>
      </trkpt>
      <trkpt lat="46.1143" lon="-1.12408">
        <ele>1.7</ele>
        <time>2015-11-09T09:36:58Z</time>
      </trkpt>
      <trkpt lat="46.11433" lon="-1.12409">
        <ele>1.7</ele>
        <time>2015-11-09T09:37:01Z</time>
      </trkpt>
      <trkpt lat="46.11452" lon="-1.12408">
        <ele>1.6</ele>
        <time>2015-11-09T09:37:14Z</time>
      </trkpt>
      <trkpt lat="46.11471" lon="-1.12405">
        <ele>1.8</ele>
        <time>2015-11-09T09:37:27Z</time>
      </trkpt>
      <trkpt lat="46.11488" lon="-1.12399">
        <ele>2.5</ele>
        <time>2015-11-09T09:37:40Z</time>
      </trkpt>
      <trkpt lat="46.11502" lon="-1.12381">
        <ele>3.6</ele>
        <time>2015-11-09T09:37:55Z</time>
      </trkpt>
      <trkpt lat="46.1151" lon="-1.1237">
        <ele>4.3</ele>
        <time>2015-11-09T09:38:06Z</time>
      </trkpt>
      <trkpt lat="46.11511" lon="-1.1235">
        <ele>3.8</ele>
        <time>2015-11-09T09:38:21Z</time>
      </trkpt>
      <trkpt lat="46.11528" lon="-1.12344">
        <ele>3.1</ele>
        <time>2015-11-09T09:38:38Z</time>
      </trkpt>
      <trkpt lat="46.1153" lon="-1.12343">
        <ele>3</ele>
        <time>2015-11-09T09:38:40Z</time>
      </trkpt>
      <trkpt lat="46.11535" lon="-1.12342">
        <ele>2.9</ele>
        <time>2015-11-09T09:38:44Z</time>
      </trkpt>
      <trkpt lat="46.11553" lon="-1.12339">
        <ele>2.6</ele>
        <time>2015-11-09T09:38:56Z</time>
      </trkpt>
      <trkpt lat="46.11572" lon="-1.12337">
        <ele>2.4</ele>
        <time>2015-11-09T09:39:09Z</time>
      </trkpt>
      <trkpt lat="46.11591" lon="-1.12339">
        <ele>2.7</ele>
        <time>2015-11-09T09:39:22Z</time>
      </trkpt>
      <trkpt lat="46.11609" lon="-1.12339">
        <ele>2.8</ele>
        <time>2015-11-09T09:39:36Z</time>
      </trkpt>
      <trkpt lat="46.11613" lon="-1.12337">
        <ele>2.6</ele>
        <time>2015-11-09T09:39:39Z</time>
      </trkpt>
      <trkpt lat="46.11616" lon="-1.12332">
        <ele>2</ele>
        <time>2015-11-09T09:39:43Z</time>
      </trkpt>
      <trkpt lat="46.11631" lon="-1.12319">
        <ele>2</ele>
        <time>2015-11-09T09:39:56Z</time>
      </trkpt>
      <trkpt lat="46.1165" lon="-1.12315">
        <ele>2</ele>
        <time>2015-11-09T09:40:09Z</time>
      </trkpt>
      <trkpt lat="46.11657" lon="-1.12318">
        <ele>2</ele>
        <time>2015-11-09T09:40:16Z</time>
      </trkpt>
      <trkpt lat="46.11659" lon="-1.12319">
        <ele>2</ele>
        <time>2015-11-09T09:40:20Z</time>
      </trkpt>
      <trkpt lat="46.11677" lon="-1.12321">
        <ele>2</ele>
        <time>2015-11-09T09:40:33Z</time>
      </trkpt>
      <trkpt lat="46.11679" lon="-1.12321">
        <ele>2</ele>
        <time>2015-11-09T09:40:34Z</time>
      </trkpt>
      <trkpt lat="46.11697" lon="-1.12321">
        <ele>2</ele>
        <time>2015-11-09T09:40:46Z</time>
      </trkpt>
      <trkpt lat="46.11715" lon="-1.12324">
        <ele>2</ele>
        <time>2015-11-09T09:40:58Z</time>
      </trkpt>
      <trkpt lat="46.11733" lon="-1.12327">
        <ele>2</ele>
        <time>2015-11-09T09:41:10Z</time>
      </trkpt>
      <trkpt lat="46.11751" lon="-1.12327">
        <ele>2</ele>
        <time>2015-11-09T09:41:23Z</time>
      </trkpt>
      <trkpt lat="46.1177" lon="-1.1233">
        <ele>2</ele>
        <time>2015-11-09T09:41:36Z</time>
      </trkpt>
      <trkpt lat="46.11788" lon="-1.12335">
        <ele>2.1</ele>
        <time>2015-11-09T09:41:49Z</time>
      </trkpt>
      <trkpt lat="46.11806" lon="-1.12341">
        <ele>2.3</ele>
        <time>2015-11-09T09:42:02Z</time>
      </trkpt>
      <trkpt lat="46.11824" lon="-1.12346">
        <ele>2.4</ele>
        <time>2015-11-09T09:42:14Z</time>
      </trkpt>
      <trkpt lat="46.11843" lon="-1.12347">
        <ele>2.5</ele>
        <time>2015-11-09T09:42:27Z</time>
      </trkpt>
      <trkpt lat="46.11844" lon="-1.12346">
        <ele>2.4</ele>
        <time>2015-11-09T09:42:28Z</time>
      </trkpt>
      <trkpt lat="46.11848" lon="-1.12332">
        <ele>2</ele>
        <time>2015-11-09T09:42:35Z</time>
      </trkpt>
      <trkpt lat="46.11851" lon="-1.1232">
        <ele>2</ele>
        <time>2015-11-09T09:42:41Z</time>
      </trkpt>
      <trkpt lat="46.11853" lon="-1.12311">
        <ele>2</ele>
        <time>2015-11-09T09:42:45Z</time>
      </trkpt>
      <trkpt lat="46.11857" lon="-1.12301">
        <ele>2</ele>
        <time>2015-11-09T09:42:51Z</time>
      </trkpt>
      <trkpt lat="46.11876" lon="-1.12306">
        <ele>2</ele>
        <time>2015-11-09T09:43:04Z</time>
      </trkpt>
      <trkpt lat="46.11894" lon="-1.12313">
        <ele>2</ele>
        <time>2015-11-09T09:43:17Z</time>
      </trkpt>
      <trkpt lat="46.11912" lon="-1.12319">
        <ele>2</ele>
        <time>2015-11-09T09:43:30Z</time>
      </trkpt>
      <trkpt lat="46.1193" lon="-1.12325">
        <ele>2</ele>
        <time>2015-11-09T09:43:42Z</time>
      </trkpt>
      <trkpt lat="46.11948" lon="-1.1233">
        <ele>2</ele>
        <time>2015-11-09T09:43:53Z</time>
      </trkpt>
      <trkpt lat="46.11967" lon="-1.12337">
        <ele>2</ele>
        <time>2015-11-09T09:44:06Z</time>
      </trkpt>
      <trkpt lat="46.11984" lon="-1.12346">
        <ele>2</ele>
        <time>2015-11-09T09:44:19Z</time>
      </trkpt>
      <trkpt lat="46.12001" lon="-1.12354">
        <ele>2</ele>
        <time>2015-11-09T09:44:32Z</time>
      </trkpt>
      <trkpt lat="46.12018" lon="-1.12363">
        <ele>2.1</ele>
        <time>2015-11-09T09:44:45Z</time>
      </trkpt>
      <trkpt lat="46.12037" lon="-1.12369">
        <ele>2.2</ele>
        <time>2015-11-09T09:44:59Z</time>
      </trkpt>
      <trkpt lat="46.12055" lon="-1.12376">
        <ele>2</ele>
        <time>2015-11-09T09:45:13Z</time>
      </trkpt>
      <trkpt lat="46.12074" lon="-1.12381">
        <ele>2.5</ele>
        <time>2015-11-09T09:45:26Z</time>
      </trkpt>
      <trkpt lat="46.12092" lon="-1.12385">
        <ele>3</ele>
        <time>2015-11-09T09:45:38Z</time>
      </trkpt>
      <trkpt lat="46.1211" lon="-1.12391">
        <ele>3</ele>
        <time>2015-11-09T09:45:51Z</time>
      </trkpt>
      <trkpt lat="46.12128" lon="-1.12398">
        <ele>3</ele>
        <time>2015-11-09T09:46:04Z</time>
      </trkpt>
      <trkpt lat="46.12145" lon="-1.12409">
        <ele>3.1</ele>
        <time>2015-11-09T09:46:17Z</time>
      </trkpt>
      <trkpt lat="46.12162" lon="-1.12422">
        <ele>3</ele>
        <time>2015-11-09T09:46:31Z</time>
      </trkpt>
      <trkpt lat="46.12179" lon="-1.12432">
        <ele>3.2</ele>
        <time>2015-11-09T09:46:45Z</time>
      </trkpt>
      <trkpt lat="46.12197" lon="-1.12443">
        <ele>3.1</ele>
        <time>2015-11-09T09:46:59Z</time>
      </trkpt>
      <trkpt lat="46.12214" lon="-1.12452">
        <ele>3</ele>
        <time>2015-11-09T09:47:12Z</time>
      </trkpt>
      <trkpt lat="46.12232" lon="-1.12462">
        <ele>3.1</ele>
        <time>2015-11-09T09:47:25Z</time>
      </trkpt>
      <trkpt lat="46.1225" lon="-1.12472">
        <ele>3</ele>
        <time>2015-11-09T09:47:39Z</time>
      </trkpt>
      <trkpt lat="46.12267" lon="-1.12483">
        <ele>3.8</ele>
        <time>2015-11-09T09:47:52Z</time>
      </trkpt>
      <trkpt lat="46.12284" lon="-1.12492">
        <ele>3.2</ele>
        <time>2015-11-09T09:48:05Z</time>
      </trkpt>
      <trkpt lat="46.12301" lon="-1.12503">
        <ele>3.2</ele>
        <time>2015-11-09T09:48:20Z</time>
      </trkpt>
      <trkpt lat="46.12317" lon="-1.12514">
        <ele>4</ele>
        <time>2015-11-09T09:48:32Z</time>
      </trkpt>
      <trkpt lat="46.12334" lon="-1.12525">
        <ele>4</ele>
        <time>2015-11-09T09:48:45Z</time>
      </trkpt>
      <trkpt lat="46.12352" lon="-1.12536">
        <ele>4.4</ele>
        <time>2015-11-09T09:48:58Z</time>
      </trkpt>
      <trkpt lat="46.1237" lon="-1.12546">
        <ele>4.3</ele>
        <time>2015-11-09T09:49:10Z</time>
      </trkpt>
      <trkpt lat="46.12387" lon="-1.12557">
        <ele>4.2</ele>
        <time>2015-11-09T09:49:23Z</time>
      </trkpt>
      <trkpt lat="46.12404" lon="-1.12569">
        <ele>4.7</ele>
        <time>2015-11-09T09:49:36Z</time>
      </trkpt>
      <trkpt lat="46.12421" lon="-1.1258">
        <ele>4.9</ele>
        <time>2015-11-09T09:49:49Z</time>
      </trkpt>
      <trkpt lat="46.12437" lon="-1.12591">
        <ele>5.2</ele>
        <time>2015-11-09T09:50:02Z</time>
      </trkpt>
      <trkpt lat="46.12455" lon="-1.12601">
        <ele>5.1</ele>
        <time>2015-11-09T09:50:15Z</time>
      </trkpt>
      <trkpt lat="46.1246" lon="-1.12605">
        <ele>5.1</ele>
        <time>2015-11-09T09:50:20Z</time>
      </trkpt>
      <trkpt lat="46.12478" lon="-1.12617">
        <ele>5</ele>
        <time>2015-11-09T09:50:34Z</time>
      </trkpt>
      <trkpt lat="46.12495" lon="-1.12627">
        <ele>5.5</ele>
        <time>2015-11-09T09:50:45Z</time>
      </trkpt>
      <trkpt lat="46.12512" lon="-1.12636">
        <ele>5.4</ele>
        <time>2015-11-09T09:50:56Z</time>
      </trkpt>
      <trkpt lat="46.12529" lon="-1.12648">
        <ele>5.3</ele>
        <time>2015-11-09T09:51:09Z</time>
      </trkpt>
      <trkpt lat="46.12546" lon="-1.12662">
        <ele>5.7</ele>
        <time>2015-11-09T09:51:22Z</time>
      </trkpt>
      <trkpt lat="46.12562" lon="-1.12673">
        <ele>5.4</ele>
        <time>2015-11-09T09:51:35Z</time>
      </trkpt>
      <trkpt lat="46.1258" lon="-1.12686">
        <ele>5</ele>
        <time>2015-11-09T09:51:48Z</time>
      </trkpt>
      <trkpt lat="46.12589" lon="-1.12694">
        <ele>5</ele>
        <time>2015-11-09T09:51:55Z</time>
      </trkpt>
      <trkpt lat="46.12605" lon="-1.12708">
        <ele>4.8</ele>
        <time>2015-11-09T09:52:08Z</time>
      </trkpt>
      <trkpt lat="46.12621" lon="-1.12721">
        <ele>5</ele>
        <time>2015-11-09T09:52:21Z</time>
      </trkpt>
      <trkpt lat="46.12635" lon="-1.12739">
        <ele>4.8</ele>
        <time>2015-11-09T09:52:33Z</time>
      </trkpt>
      <trkpt lat="46.12646" lon="-1.12761">
        <ele>4.6</ele>
        <time>2015-11-09T09:52:46Z</time>
      </trkpt>
      <trkpt lat="46.12657" lon="-1.12783">
        <ele>3.9</ele>
        <time>2015-11-09T09:53:00Z</time>
      </trkpt>
      <trkpt lat="46.12668" lon="-1.12807">
        <ele>4</ele>
        <time>2015-11-09T09:53:13Z</time>
      </trkpt>
      <trkpt lat="46.12677" lon="-1.1283">
        <ele>3.5</ele>
        <time>2015-11-09T09:53:25Z</time>
      </trkpt>
      <trkpt lat="46.12688" lon="-1.12852">
        <ele>3.6</ele>
        <time>2015-11-09T09:53:37Z</time>
      </trkpt>
      <trkpt lat="46.12693" lon="-1.12877">
        <ele>4</ele>
        <time>2015-11-09T09:53:50Z</time>
      </trkpt>
      <trkpt lat="46.12699" lon="-1.12903">
        <ele>4</ele>
        <time>2015-11-09T09:54:02Z</time>
      </trkpt>
      <trkpt lat="46.127" lon="-1.12905">
        <ele>4</ele>
        <time>2015-11-09T09:54:03Z</time>
      </trkpt>
      <trkpt lat="46.12706" lon="-1.1293">
        <ele>3.7</ele>
        <time>2015-11-09T09:54:15Z</time>
      </trkpt>
      <trkpt lat="46.12709" lon="-1.12955">
        <ele>3.3</ele>
        <time>2015-11-09T09:54:27Z</time>
      </trkpt>
      <trkpt lat="46.1271" lon="-1.12982">
        <ele>3</ele>
        <time>2015-11-09T09:54:39Z</time>
      </trkpt>
      <trkpt lat="46.12709" lon="-1.1301">
        <ele>3.2</ele>
        <time>2015-11-09T09:54:52Z</time>
      </trkpt>
      <trkpt lat="46.12707" lon="-1.13037">
        <ele>3.5</ele>
        <time>2015-11-09T09:55:05Z</time>
      </trkpt>
      <trkpt lat="46.12706" lon="-1.13063">
        <ele>3.4</ele>
        <time>2015-11-09T09:55:17Z</time>
      </trkpt>
      <trkpt lat="46.1271" lon="-1.13089">
        <ele>3.6</ele>
        <time>2015-11-09T09:55:30Z</time>
      </trkpt>
      <trkpt lat="46.12712" lon="-1.13096">
        <ele>3.8</ele>
        <time>2015-11-09T09:55:34Z</time>
      </trkpt>
      <trkpt lat="46.12714" lon="-1.13109">
        <ele>4</ele>
        <time>2015-11-09T09:55:45Z</time>
      </trkpt>
      <trkpt lat="46.12714" lon="-1.13116">
        <ele>4</ele>
        <time>2015-11-09T09:55:49Z</time>
      </trkpt>
      <trkpt lat="46.12711" lon="-1.13143">
        <ele>4</ele>
        <time>2015-11-09T09:56:01Z</time>
      </trkpt>
      <trkpt lat="46.12706" lon="-1.13169">
        <ele>4</ele>
        <time>2015-11-09T09:56:12Z</time>
      </trkpt>
      <trkpt lat="46.12701" lon="-1.13196">
        <ele>4</ele>
        <time>2015-11-09T09:56:24Z</time>
      </trkpt>
      <trkpt lat="46.12697" lon="-1.13223">
        <ele>4</ele>
        <time>2015-11-09T09:56:37Z</time>
      </trkpt>
      <trkpt lat="46.12693" lon="-1.13248">
        <ele>4</ele>
        <time>2015-11-09T09:56:49Z</time>
      </trkpt>
      <trkpt lat="46.12689" lon="-1.13275">
        <ele>4</ele>
        <time>2015-11-09T09:57:01Z</time>
      </trkpt>
      <trkpt lat="46.12683" lon="-1.13301">
        <ele>4</ele>
        <time>2015-11-09T09:57:13Z</time>
      </trkpt>
      <trkpt lat="46.12678" lon="-1.13328">
        <ele>4</ele>
        <time>2015-11-09T09:57:25Z</time>
      </trkpt>
      <trkpt lat="46.12674" lon="-1.13354">
        <ele>4</ele>
        <time>2015-11-09T09:57:37Z</time>
      </trkpt>
      <trkpt lat="46.1267" lon="-1.1338">
        <ele>4</ele>
        <time>2015-11-09T09:57:49Z</time>
      </trkpt>
      <trkpt lat="46.12668" lon="-1.13407">
        <ele>4</ele>
        <time>2015-11-09T09:58:01Z</time>
      </trkpt>
      <trkpt lat="46.12672" lon="-1.13434">
        <ele>4</ele>
        <time>2015-11-09T09:58:13Z</time>
      </trkpt>
      <trkpt lat="46.12676" lon="-1.13459">
        <ele>4</ele>
        <time>2015-11-09T09:58:25Z</time>
      </trkpt>
      <trkpt lat="46.12682" lon="-1.13484">
        <ele>4.2</ele>
        <time>2015-11-09T09:58:36Z</time>
      </trkpt>
      <trkpt lat="46.12688" lon="-1.13511">
        <ele>4.4</ele>
        <time>2015-11-09T09:58:48Z</time>
      </trkpt>
      <trkpt lat="46.12695" lon="-1.13536">
        <ele>4.7</ele>
        <time>2015-11-09T09:59:00Z</time>
      </trkpt>
      <trkpt lat="46.12704" lon="-1.13562">
        <ele>4.2</ele>
        <time>2015-11-09T09:59:14Z</time>
      </trkpt>
      <trkpt lat="46.12712" lon="-1.13585">
        <ele>4.2</ele>
        <time>2015-11-09T09:59:26Z</time>
      </trkpt>
      <trkpt lat="46.1272" lon="-1.13609">
        <ele>4.7</ele>
        <time>2015-11-09T09:59:37Z</time>
      </trkpt>
      <trkpt lat="46.12725" lon="-1.13636">
        <ele>5</ele>
        <time>2015-11-09T09:59:50Z</time>
      </trkpt>
      <trkpt lat="46.1273" lon="-1.13661">
        <ele>4.6</ele>
        <time>2015-11-09T10:00:02Z</time>
      </trkpt>
      <trkpt lat="46.12733" lon="-1.13688">
        <ele>4.3</ele>
        <time>2015-11-09T10:00:15Z</time>
      </trkpt>
      <trkpt lat="46.12738" lon="-1.13712">
        <ele>4.5</ele>
        <time>2015-11-09T10:00:27Z</time>
      </trkpt>
      <trkpt lat="46.12741" lon="-1.13739">
        <ele>4.3</ele>
        <time>2015-11-09T10:00:39Z</time>
      </trkpt>
      <trkpt lat="46.12745" lon="-1.13767">
        <ele>4.5</ele>
        <time>2015-11-09T10:00:52Z</time>
      </trkpt>
      <trkpt lat="46.1275" lon="-1.13792">
        <ele>5</ele>
        <time>2015-11-09T10:01:04Z</time>
      </trkpt>
      <trkpt lat="46.12749" lon="-1.13819">
        <ele>5.4</ele>
        <time>2015-11-09T10:01:16Z</time>
      </trkpt>
      <trkpt lat="46.12748" lon="-1.13845">
        <ele>5.7</ele>
        <time>2015-11-09T10:01:29Z</time>
      </trkpt>
      <trkpt lat="46.12744" lon="-1.13872">
        <ele>5.1</ele>
        <time>2015-11-09T10:01:42Z</time>
      </trkpt>
      <trkpt lat="46.12741" lon="-1.13899">
        <ele>4.8</ele>
        <time>2015-11-09T10:01:54Z</time>
      </trkpt>
      <trkpt lat="46.12734" lon="-1.13925">
        <ele>4.7</ele>
        <time>2015-11-09T10:02:07Z</time>
      </trkpt>
      <trkpt lat="46.12727" lon="-1.13949">
        <ele>5.3</ele>
        <time>2015-11-09T10:02:19Z</time>
      </trkpt>
      <trkpt lat="46.12719" lon="-1.13973">
        <ele>5.5</ele>
        <time>2015-11-09T10:02:32Z</time>
      </trkpt>
      <trkpt lat="46.12712" lon="-1.13999">
        <ele>4.5</ele>
        <time>2015-11-09T10:02:45Z</time>
      </trkpt>
      <trkpt lat="46.12711" lon="-1.14025">
        <ele>5.1</ele>
        <time>2015-11-09T10:02:59Z</time>
      </trkpt>
      <trkpt lat="46.12714" lon="-1.14051">
        <ele>5.6</ele>
        <time>2015-11-09T10:03:12Z</time>
      </trkpt>
      <trkpt lat="46.12713" lon="-1.14052">
        <ele>5.6</ele>
        <time>2015-11-09T10:03:13Z</time>
      </trkpt>
      <trkpt lat="46.127" lon="-1.14072">
        <ele>5.2</ele>
        <time>2015-11-09T10:03:25Z</time>
      </trkpt>
      <trkpt lat="46.12696" lon="-1.14098">
        <ele>5.1</ele>
        <time>2015-11-09T10:03:38Z</time>
      </trkpt>
      <trkpt lat="46.12695" lon="-1.14124">
        <ele>5</ele>
        <time>2015-11-09T10:03:50Z</time>
      </trkpt>
      <trkpt lat="46.12686" lon="-1.14147">
        <ele>4.7</ele>
        <time>2015-11-09T10:04:03Z</time>
      </trkpt>
      <trkpt lat="46.12682" lon="-1.14174">
        <ele>4.6</ele>
        <time>2015-11-09T10:04:17Z</time>
      </trkpt>
      <trkpt lat="46.12684" lon="-1.14199">
        <ele>4.9</ele>
        <time>2015-11-09T10:04:31Z</time>
      </trkpt>
      <trkpt lat="46.12692" lon="-1.14223">
        <ele>6.5</ele>
        <time>2015-11-09T10:04:45Z</time>
      </trkpt>
      <trkpt lat="46.12698" lon="-1.14249">
        <ele>6.7</ele>
        <time>2015-11-09T10:04:58Z</time>
      </trkpt>
      <trkpt lat="46.12707" lon="-1.14274">
        <ele>4.2</ele>
        <time>2015-11-09T10:05:11Z</time>
      </trkpt>
      <trkpt lat="46.12713" lon="-1.14298">
        <ele>4.6</ele>
        <time>2015-11-09T10:05:23Z</time>
      </trkpt>
      <trkpt lat="46.1272" lon="-1.14323">
        <ele>5.6</ele>
        <time>2015-11-09T10:05:35Z</time>
      </trkpt>
      <trkpt lat="46.12723" lon="-1.1435">
        <ele>5.8</ele>
        <time>2015-11-09T10:05:47Z</time>
      </trkpt>
      <trkpt lat="46.12725" lon="-1.14357">
        <ele>5.6</ele>
        <time>2015-11-09T10:05:51Z</time>
      </trkpt>
      <trkpt lat="46.12727" lon="-1.14384">
        <ele>4.6</ele>
        <time>2015-11-09T10:06:07Z</time>
      </trkpt>
      <trkpt lat="46.12729" lon="-1.14411">
        <ele>4.9</ele>
        <time>2015-11-09T10:06:19Z</time>
      </trkpt>
      <trkpt lat="46.12732" lon="-1.14438">
        <ele>4.9</ele>
        <time>2015-11-09T10:06:31Z</time>
      </trkpt>
      <trkpt lat="46.12735" lon="-1.14465">
        <ele>4.5</ele>
        <time>2015-11-09T10:06:44Z</time>
      </trkpt>
      <trkpt lat="46.12738" lon="-1.14492">
        <ele>4.4</ele>
        <time>2015-11-09T10:06:56Z</time>
      </trkpt>
      <trkpt lat="46.12741" lon="-1.14518">
        <ele>5.2</ele>
        <time>2015-11-09T10:07:08Z</time>
      </trkpt>
      <trkpt lat="46.12745" lon="-1.14545">
        <ele>6</ele>
        <time>2015-11-09T10:07:20Z</time>
      </trkpt>
      <trkpt lat="46.1275" lon="-1.14572">
        <ele>7</ele>
        <time>2015-11-09T10:07:32Z</time>
      </trkpt>
      <trkpt lat="46.12757" lon="-1.14596">
        <ele>5.8</ele>
        <time>2015-11-09T10:07:44Z</time>
      </trkpt>
      <trkpt lat="46.12768" lon="-1.14618">
        <ele>6.2</ele>
        <time>2015-11-09T10:07:56Z</time>
      </trkpt>
      <trkpt lat="46.12782" lon="-1.14637">
        <ele>7.7</ele>
        <time>2015-11-09T10:08:09Z</time>
      </trkpt>
      <trkpt lat="46.12798" lon="-1.14654">
        <ele>6.5</ele>
        <time>2015-11-09T10:08:22Z</time>
      </trkpt>
      <trkpt lat="46.12811" lon="-1.14673">
        <ele>5.9</ele>
        <time>2015-11-09T10:08:34Z</time>
      </trkpt>
      <trkpt lat="46.12825" lon="-1.1469">
        <ele>6.3</ele>
        <time>2015-11-09T10:08:46Z</time>
      </trkpt>
      <trkpt lat="46.1284" lon="-1.14706">
        <ele>6.3</ele>
        <time>2015-11-09T10:08:58Z</time>
      </trkpt>
      <trkpt lat="46.12853" lon="-1.14727">
        <ele>5.7</ele>
        <time>2015-11-09T10:09:10Z</time>
      </trkpt>
      <trkpt lat="46.12867" lon="-1.14744">
        <ele>5.8</ele>
        <time>2015-11-09T10:09:22Z</time>
      </trkpt>
      <trkpt lat="46.12882" lon="-1.14762">
        <ele>6.2</ele>
        <time>2015-11-09T10:09:35Z</time>
      </trkpt>
      <trkpt lat="46.12896" lon="-1.14781">
        <ele>6.6</ele>
        <time>2015-11-09T10:09:47Z</time>
      </trkpt>
      <trkpt lat="46.1291" lon="-1.14798">
        <ele>6.1</ele>
        <time>2015-11-09T10:09:59Z</time>
      </trkpt>
      <trkpt lat="46.12927" lon="-1.14813">
        <ele>6.1</ele>
        <time>2015-11-09T10:10:12Z</time>
      </trkpt>
      <trkpt lat="46.12943" lon="-1.14827">
        <ele>6.8</ele>
        <time>2015-11-09T10:10:25Z</time>
      </trkpt>
      <trkpt lat="46.1296" lon="-1.14842">
        <ele>5.4</ele>
        <time>2015-11-09T10:10:38Z</time>
      </trkpt>
      <trkpt lat="46.12977" lon="-1.14853">
        <ele>4.8</ele>
        <time>2015-11-09T10:10:51Z</time>
      </trkpt>
      <trkpt lat="46.12995" lon="-1.14862">
        <ele>5.5</ele>
        <time>2015-11-09T10:11:04Z</time>
      </trkpt>
      <trkpt lat="46.13011" lon="-1.14875">
        <ele>4.4</ele>
        <time>2015-11-09T10:11:17Z</time>
      </trkpt>
      <trkpt lat="46.1303" lon="-1.14883">
        <ele>4.5</ele>
        <time>2015-11-09T10:11:30Z</time>
      </trkpt>
      <trkpt lat="46.13048" lon="-1.14887">
        <ele>4.8</ele>
        <time>2015-11-09T10:11:42Z</time>
      </trkpt>
      <trkpt lat="46.13065" lon="-1.14879">
        <ele>4.4</ele>
        <time>2015-11-09T10:11:54Z</time>
      </trkpt>
      <trkpt lat="46.13078" lon="-1.14862">
        <ele>4.3</ele>
        <time>2015-11-09T10:12:06Z</time>
      </trkpt>
      <trkpt lat="46.13094" lon="-1.14846">
        <ele>3.8</ele>
        <time>2015-11-09T10:12:19Z</time>
      </trkpt>
      <trkpt lat="46.13111" lon="-1.14836">
        <ele>3.9</ele>
        <time>2015-11-09T10:12:31Z</time>
      </trkpt>
      <trkpt lat="46.13128" lon="-1.14827">
        <ele>3.8</ele>
        <time>2015-11-09T10:12:43Z</time>
      </trkpt>
      <trkpt lat="46.13146" lon="-1.14827">
        <ele>4</ele>
        <time>2015-11-09T10:12:55Z</time>
      </trkpt>
      <trkpt lat="46.13165" lon="-1.14827">
        <ele>4.7</ele>
        <time>2015-11-09T10:13:07Z</time>
      </trkpt>
      <trkpt lat="46.13183" lon="-1.14829">
        <ele>4.8</ele>
        <time>2015-11-09T10:13:19Z</time>
      </trkpt>
      <trkpt lat="46.13202" lon="-1.14832">
        <ele>4.9</ele>
        <time>2015-11-09T10:13:31Z</time>
      </trkpt>
      <trkpt lat="46.1322" lon="-1.14836">
        <ele>4.8</ele>
        <time>2015-11-09T10:13:43Z</time>
      </trkpt>
      <trkpt lat="46.13239" lon="-1.1484">
        <ele>4.2</ele>
        <time>2015-11-09T10:13:55Z</time>
      </trkpt>
      <trkpt lat="46.13256" lon="-1.14848">
        <ele>4.2</ele>
        <time>2015-11-09T10:14:07Z</time>
      </trkpt>
      <trkpt lat="46.13274" lon="-1.14859">
        <ele>6.3</ele>
        <time>2015-11-09T10:14:19Z</time>
      </trkpt>
      <trkpt lat="46.1329" lon="-1.14872">
        <ele>4.7</ele>
        <time>2015-11-09T10:14:31Z</time>
      </trkpt>
      <trkpt lat="46.13305" lon="-1.14887">
        <ele>4.8</ele>
        <time>2015-11-09T10:14:43Z</time>
      </trkpt>
      <trkpt lat="46.13321" lon="-1.14901">
        <ele>4.1</ele>
        <time>2015-11-09T10:14:55Z</time>
      </trkpt>
      <trkpt lat="46.13333" lon="-1.14921">
        <ele>4.8</ele>
        <time>2015-11-09T10:15:08Z</time>
      </trkpt>
      <trkpt lat="46.13334" lon="-1.14923">
        <ele>4.8</ele>
        <time>2015-11-09T10:15:09Z</time>
      </trkpt>
      <trkpt lat="46.13347" lon="-1.14943">
        <ele>4</ele>
        <time>2015-11-09T10:15:22Z</time>
      </trkpt>
      <trkpt lat="46.13359" lon="-1.14964">
        <ele>4.6</ele>
        <time>2015-11-09T10:15:35Z</time>
      </trkpt>
      <trkpt lat="46.13371" lon="-1.14985">
        <ele>4.3</ele>
        <time>2015-11-09T10:15:48Z</time>
      </trkpt>
      <trkpt lat="46.13383" lon="-1.15005">
        <ele>4.1</ele>
        <time>2015-11-09T10:16:00Z</time>
      </trkpt>
      <trkpt lat="46.13395" lon="-1.15026">
        <ele>4.7</ele>
        <time>2015-11-09T10:16:13Z</time>
      </trkpt>
      <trkpt lat="46.13407" lon="-1.15046">
        <ele>3.9</ele>
        <time>2015-11-09T10:16:26Z</time>
      </trkpt>
      <trkpt lat="46.13419" lon="-1.15066">
        <ele>4</ele>
        <time>2015-11-09T10:16:39Z</time>
      </trkpt>
      <trkpt lat="46.13425" lon="-1.15074">
        <ele>4</ele>
        <time>2015-11-09T10:16:45Z</time>
      </trkpt>
      <trkpt lat="46.13434" lon="-1.15085">
        <ele>4</ele>
        <time>2015-11-09T10:16:53Z</time>
      </trkpt>
      <trkpt lat="46.13449" lon="-1.15102">
        <ele>4.6</ele>
        <time>2015-11-09T10:17:06Z</time>
      </trkpt>
      <trkpt lat="46.13465" lon="-1.15115">
        <ele>4.2</ele>
        <time>2015-11-09T10:17:18Z</time>
      </trkpt>
      <trkpt lat="46.13482" lon="-1.15126">
        <ele>4.3</ele>
        <time>2015-11-09T10:17:31Z</time>
      </trkpt>
      <trkpt lat="46.13499" lon="-1.15136">
        <ele>5</ele>
        <time>2015-11-09T10:17:44Z</time>
      </trkpt>
      <trkpt lat="46.13516" lon="-1.15148">
        <ele>4.3</ele>
        <time>2015-11-09T10:17:57Z</time>
      </trkpt>
      <trkpt lat="46.13533" lon="-1.15161">
        <ele>4.7</ele>
        <time>2015-11-09T10:18:10Z</time>
      </trkpt>
      <trkpt lat="46.1355" lon="-1.15174">
        <ele>4.3</ele>
        <time>2015-11-09T10:18:23Z</time>
      </trkpt>
      <trkpt lat="46.13565" lon="-1.1519">
        <ele>4.5</ele>
        <time>2015-11-09T10:18:36Z</time>
      </trkpt>
      <trkpt lat="46.13582" lon="-1.15204">
        <ele>4</ele>
        <time>2015-11-09T10:18:49Z</time>
      </trkpt>
      <trkpt lat="46.13599" lon="-1.15217">
        <ele>4</ele>
        <time>2015-11-09T10:19:01Z</time>
      </trkpt>
      <trkpt lat="46.13614" lon="-1.15231">
        <ele>4</ele>
        <time>2015-11-09T10:19:13Z</time>
      </trkpt>
      <trkpt lat="46.1363" lon="-1.15245">
        <ele>4.6</ele>
        <time>2015-11-09T10:19:26Z</time>
      </trkpt>
      <trkpt lat="46.13646" lon="-1.15259">
        <ele>4.6</ele>
        <time>2015-11-09T10:19:38Z</time>
      </trkpt>
      <trkpt lat="46.13663" lon="-1.15274">
        <ele>4.8</ele>
        <time>2015-11-09T10:19:51Z</time>
      </trkpt>
      <trkpt lat="46.13679" lon="-1.15289">
        <ele>4.3</ele>
        <time>2015-11-09T10:20:03Z</time>
      </trkpt>
      <trkpt lat="46.13694" lon="-1.15305">
        <ele>4.9</ele>
        <time>2015-11-09T10:20:15Z</time>
      </trkpt>
      <trkpt lat="46.13708" lon="-1.15321">
        <ele>4.2</ele>
        <time>2015-11-09T10:20:27Z</time>
      </trkpt>
      <trkpt lat="46.13721" lon="-1.15341">
        <ele>4.2</ele>
        <time>2015-11-09T10:20:39Z</time>
      </trkpt>
      <trkpt lat="46.13732" lon="-1.15361">
        <ele>5</ele>
        <time>2015-11-09T10:20:52Z</time>
      </trkpt>
      <trkpt lat="46.13743" lon="-1.15384">
        <ele>4.6</ele>
        <time>2015-11-09T10:21:05Z</time>
      </trkpt>
      <trkpt lat="46.13752" lon="-1.15408">
        <ele>5</ele>
        <time>2015-11-09T10:21:17Z</time>
      </trkpt>
      <trkpt lat="46.13759" lon="-1.15434">
        <ele>5</ele>
        <time>2015-11-09T10:21:30Z</time>
      </trkpt>
      <trkpt lat="46.13764" lon="-1.15459">
        <ele>4.5</ele>
        <time>2015-11-09T10:21:42Z</time>
      </trkpt>
      <trkpt lat="46.13769" lon="-1.15486">
        <ele>4.2</ele>
        <time>2015-11-09T10:21:55Z</time>
      </trkpt>
      <trkpt lat="46.13773" lon="-1.15511">
        <ele>4.8</ele>
        <time>2015-11-09T10:22:08Z</time>
      </trkpt>
      <trkpt lat="46.13778" lon="-1.15536">
        <ele>6</ele>
        <time>2015-11-09T10:22:21Z</time>
      </trkpt>
      <trkpt lat="46.13781" lon="-1.15562">
        <ele>6</ele>
        <time>2015-11-09T10:22:34Z</time>
      </trkpt>
      <trkpt lat="46.13785" lon="-1.15589">
        <ele>6.1</ele>
        <time>2015-11-09T10:22:48Z</time>
      </trkpt>
      <trkpt lat="46.13787" lon="-1.15615">
        <ele>5.8</ele>
        <time>2015-11-09T10:23:01Z</time>
      </trkpt>
      <trkpt lat="46.13789" lon="-1.15642">
        <ele>6.4</ele>
        <time>2015-11-09T10:23:14Z</time>
      </trkpt>
      <trkpt lat="46.1379" lon="-1.15669">
        <ele>6.5</ele>
        <time>2015-11-09T10:23:28Z</time>
      </trkpt>
      <trkpt lat="46.1379" lon="-1.15697">
        <ele>7</ele>
        <time>2015-11-09T10:23:42Z</time>
      </trkpt>
      <trkpt lat="46.13792" lon="-1.15724">
        <ele>7</ele>
        <time>2015-11-09T10:23:55Z</time>
      </trkpt>
      <trkpt lat="46.13794" lon="-1.1575">
        <ele>7</ele>
        <time>2015-11-09T10:24:08Z</time>
      </trkpt>
      <trkpt lat="46.13794" lon="-1.15776">
        <ele>7.6</ele>
        <time>2015-11-09T10:24:21Z</time>
      </trkpt>
      <trkpt lat="46.13794" lon="-1.15803">
        <ele>6.8</ele>
        <time>2015-11-09T10:24:34Z</time>
      </trkpt>
      <trkpt lat="46.13795" lon="-1.1583">
        <ele>6.8</ele>
        <time>2015-11-09T10:24:48Z</time>
      </trkpt>
      <trkpt lat="46.13795" lon="-1.1584">
        <ele>6.9</ele>
        <time>2015-11-09T10:24:53Z</time>
      </trkpt>
      <trkpt lat="46.13793" lon="-1.15867">
        <ele>6.8</ele>
        <time>2015-11-09T10:25:06Z</time>
      </trkpt>
      <trkpt lat="46.13791" lon="-1.15893">
        <ele>7</ele>
        <time>2015-11-09T10:25:19Z</time>
      </trkpt>
      <trkpt lat="46.13788" lon="-1.1592">
        <ele>7.5</ele>
        <time>2015-11-09T10:25:32Z</time>
      </trkpt>
      <trkpt lat="46.13784" lon="-1.15947">
        <ele>8.2</ele>
        <time>2015-11-09T10:25:45Z</time>
      </trkpt>
      <trkpt lat="46.1378" lon="-1.15973">
        <ele>8.1</ele>
        <time>2015-11-09T10:25:58Z</time>
      </trkpt>
      <trkpt lat="46.13775" lon="-1.15998">
        <ele>7.5</ele>
        <time>2015-11-09T10:26:10Z</time>
      </trkpt>
      <trkpt lat="46.13772" lon="-1.16025">
        <ele>6.8</ele>
        <time>2015-11-09T10:26:23Z</time>
      </trkpt>
      <trkpt lat="46.13766" lon="-1.1605">
        <ele>6.1</ele>
        <time>2015-11-09T10:26:36Z</time>
      </trkpt>
      <trkpt lat="46.13757" lon="-1.16075">
        <ele>7.1</ele>
        <time>2015-11-09T10:26:50Z</time>
      </trkpt>
      <trkpt lat="46.13746" lon="-1.16096">
        <ele>7.1</ele>
        <time>2015-11-09T10:27:04Z</time>
      </trkpt>
      <trkpt lat="46.13734" lon="-1.16116">
        <ele>5.3</ele>
        <time>2015-11-09T10:27:18Z</time>
      </trkpt>
      <trkpt lat="46.13732" lon="-1.16122">
        <ele>5.9</ele>
        <time>2015-11-09T10:27:22Z</time>
      </trkpt>
      <trkpt lat="46.13722" lon="-1.16142">
        <ele>7.9</ele>
        <time>2015-11-09T10:27:34Z</time>
      </trkpt>
      <trkpt lat="46.13722" lon="-1.16144">
        <ele>8</ele>
        <time>2015-11-09T10:27:35Z</time>
      </trkpt>
      <trkpt lat="46.13721" lon="-1.16154">
        <ele>7.8</ele>
        <time>2015-11-09T10:27:41Z</time>
      </trkpt>
      <trkpt lat="46.13722" lon="-1.16154">
        <ele>8</ele>
        <time>2015-11-09T10:27:47Z</time>
      </trkpt>
      <trkpt lat="46.13723" lon="-1.16147">
        <ele>8</ele>
        <time>2015-11-09T10:27:51Z</time>
      </trkpt>
      <trkpt lat="46.1373" lon="-1.16133">
        <ele>7.5</ele>
        <time>2015-11-09T10:28:04Z</time>
      </trkpt>
      <trkpt lat="46.13736" lon="-1.16141">
        <ele>8.9</ele>
        <time>2015-11-09T10:28:10Z</time>
      </trkpt>
      <trkpt lat="46.13735" lon="-1.16168">
        <ele>8</ele>
        <time>2015-11-09T10:28:23Z</time>
      </trkpt>
      <trkpt lat="46.13739" lon="-1.16195">
        <ele>7.5</ele>
        <time>2015-11-09T10:28:36Z</time>
      </trkpt>
      <trkpt lat="46.13748" lon="-1.16219">
        <ele>7.6</ele>
        <time>2015-11-09T10:28:49Z</time>
      </trkpt>
      <trkpt lat="46.13759" lon="-1.16239">
        <ele>8.7</ele>
        <time>2015-11-09T10:29:01Z</time>
      </trkpt>
      <trkpt lat="46.13766" lon="-1.16264">
        <ele>8.6</ele>
        <time>2015-11-09T10:29:14Z</time>
      </trkpt>
      <trkpt lat="46.13776" lon="-1.16286">
        <ele>8.8</ele>
        <time>2015-11-09T10:29:26Z</time>
      </trkpt>
      <trkpt lat="46.1378" lon="-1.16312">
        <ele>9</ele>
        <time>2015-11-09T10:29:39Z</time>
      </trkpt>
      <trkpt lat="46.13782" lon="-1.16338">
        <ele>8.7</ele>
        <time>2015-11-09T10:29:52Z</time>
      </trkpt>
      <trkpt lat="46.13793" lon="-1.16361">
        <ele>8.1</ele>
        <time>2015-11-09T10:30:06Z</time>
      </trkpt>
      <trkpt lat="46.13802" lon="-1.16384">
        <ele>8.2</ele>
        <time>2015-11-09T10:30:19Z</time>
      </trkpt>
      <trkpt lat="46.13813" lon="-1.16405">
        <ele>9.3</ele>
        <time>2015-11-09T10:30:31Z</time>
      </trkpt>
      <trkpt lat="46.13819" lon="-1.1643">
        <ele>8.1</ele>
        <time>2015-11-09T10:30:43Z</time>
      </trkpt>
      <trkpt lat="46.13831" lon="-1.16452">
        <ele>9.1</ele>
        <time>2015-11-09T10:30:56Z</time>
      </trkpt>
      <trkpt lat="46.13836" lon="-1.16476">
        <ele>9.1</ele>
        <time>2015-11-09T10:31:10Z</time>
      </trkpt>
      <trkpt lat="46.13838" lon="-1.16503">
        <ele>9</ele>
        <time>2015-11-09T10:31:22Z</time>
      </trkpt>
      <trkpt lat="46.13842" lon="-1.16529">
        <ele>9</ele>
        <time>2015-11-09T10:31:34Z</time>
      </trkpt>
      <trkpt lat="46.13851" lon="-1.16554">
        <ele>8.6</ele>
        <time>2015-11-09T10:31:47Z</time>
      </trkpt>
      <trkpt lat="46.13855" lon="-1.1658">
        <ele>8.2</ele>
        <time>2015-11-09T10:32:00Z</time>
      </trkpt>
      <trkpt lat="46.13861" lon="-1.16607">
        <ele>8.9</ele>
        <time>2015-11-09T10:32:13Z</time>
      </trkpt>
      <trkpt lat="46.1386" lon="-1.16634">
        <ele>8.8</ele>
        <time>2015-11-09T10:32:25Z</time>
      </trkpt>
      <trkpt lat="46.13862" lon="-1.16662">
        <ele>9</ele>
        <time>2015-11-09T10:32:38Z</time>
      </trkpt>
      <trkpt lat="46.13862" lon="-1.16688">
        <ele>9</ele>
        <time>2015-11-09T10:32:50Z</time>
      </trkpt>
      <trkpt lat="46.13856" lon="-1.16712">
        <ele>7.4</ele>
        <time>2015-11-09T10:33:02Z</time>
      </trkpt>
      <trkpt lat="46.13852" lon="-1.1674">
        <ele>6.6</ele>
        <time>2015-11-09T10:33:15Z</time>
      </trkpt>
      <trkpt lat="46.13853" lon="-1.16767">
        <ele>7</ele>
        <time>2015-11-09T10:33:28Z</time>
      </trkpt>
      <trkpt lat="46.13856" lon="-1.16794">
        <ele>7.3</ele>
        <time>2015-11-09T10:33:40Z</time>
      </trkpt>
      <trkpt lat="46.1386" lon="-1.1682">
        <ele>8.3</ele>
        <time>2015-11-09T10:33:53Z</time>
      </trkpt>
      <trkpt lat="46.13858" lon="-1.16847">
        <ele>7.8</ele>
        <time>2015-11-09T10:34:06Z</time>
      </trkpt>
      <trkpt lat="46.13862" lon="-1.16873">
        <ele>7.6</ele>
        <time>2015-11-09T10:34:19Z</time>
      </trkpt>
      <trkpt lat="46.13861" lon="-1.16901">
        <ele>6.6</ele>
        <time>2015-11-09T10:34:32Z</time>
      </trkpt>
      <trkpt lat="46.13858" lon="-1.16927">
        <ele>6.3</ele>
        <time>2015-11-09T10:34:44Z</time>
      </trkpt>
      <trkpt lat="46.13857" lon="-1.16954">
        <ele>7</ele>
        <time>2015-11-09T10:34:58Z</time>
      </trkpt>
      <trkpt lat="46.13858" lon="-1.16982">
        <ele>7.3</ele>
        <time>2015-11-09T10:35:11Z</time>
      </trkpt>
      <trkpt lat="46.1386" lon="-1.17009">
        <ele>7.8</ele>
        <time>2015-11-09T10:35:24Z</time>
      </trkpt>
      <trkpt lat="46.13861" lon="-1.17035">
        <ele>8</ele>
        <time>2015-11-09T10:35:37Z</time>
      </trkpt>
      <trkpt lat="46.13863" lon="-1.17062">
        <ele>8</ele>
        <time>2015-11-09T10:35:50Z</time>
      </trkpt>
      <trkpt lat="46.13861" lon="-1.17088">
        <ele>8.1</ele>
        <time>2015-11-09T10:36:03Z</time>
      </trkpt>
      <trkpt lat="46.13861" lon="-1.17114">
        <ele>9</ele>
        <time>2015-11-09T10:36:15Z</time>
      </trkpt>
      <trkpt lat="46.13863" lon="-1.17141">
        <ele>9.1</ele>
        <time>2015-11-09T10:36:28Z</time>
      </trkpt>
      <trkpt lat="46.13856" lon="-1.17165">
        <ele>7.6</ele>
        <time>2015-11-09T10:36:40Z</time>
      </trkpt>
      <trkpt lat="46.13846" lon="-1.17188">
        <ele>6.6</ele>
        <time>2015-11-09T10:36:52Z</time>
      </trkpt>
      <trkpt lat="46.13845" lon="-1.1719">
        <ele>6.6</ele>
        <time>2015-11-09T10:36:53Z</time>
      </trkpt>
      <trkpt lat="46.13842" lon="-1.17217">
        <ele>7.1</ele>
        <time>2015-11-09T10:37:05Z</time>
      </trkpt>
      <trkpt lat="46.13849" lon="-1.17242">
        <ele>7.7</ele>
        <time>2015-11-09T10:37:18Z</time>
      </trkpt>
      <trkpt lat="46.13849" lon="-1.17244">
        <ele>7.6</ele>
        <time>2015-11-09T10:37:19Z</time>
      </trkpt>
      <trkpt lat="46.13851" lon="-1.17272">
        <ele>6.6</ele>
        <time>2015-11-09T10:37:32Z</time>
      </trkpt>
      <trkpt lat="46.13854" lon="-1.17298">
        <ele>7.3</ele>
        <time>2015-11-09T10:37:44Z</time>
      </trkpt>
      <trkpt lat="46.1386" lon="-1.17323">
        <ele>8.2</ele>
        <time>2015-11-09T10:37:56Z</time>
      </trkpt>
      <trkpt lat="46.13877" lon="-1.1733">
        <ele>8.2</ele>
        <time>2015-11-09T10:38:08Z</time>
      </trkpt>
      <trkpt lat="46.13894" lon="-1.17329">
        <ele>7.1</ele>
        <time>2015-11-09T10:38:22Z</time>
      </trkpt>
      <trkpt lat="46.1391" lon="-1.17315">
        <ele>5.2</ele>
        <time>2015-11-09T10:38:41Z</time>
      </trkpt>
      <trkpt lat="46.13917" lon="-1.173">
        <ele>5.8</ele>
        <time>2015-11-09T10:38:51Z</time>
      </trkpt>
      <trkpt lat="46.13927" lon="-1.17278">
        <ele>6.3</ele>
        <time>2015-11-09T10:39:04Z</time>
      </trkpt>
      <trkpt lat="46.13941" lon="-1.1726">
        <ele>5.8</ele>
        <time>2015-11-09T10:39:17Z</time>
      </trkpt>
      <trkpt lat="46.13951" lon="-1.17239">
        <ele>6.8</ele>
        <time>2015-11-09T10:39:31Z</time>
      </trkpt>
      <trkpt lat="46.1396" lon="-1.17216">
        <ele>4.5</ele>
        <time>2015-11-09T10:39:44Z</time>
      </trkpt>
      <trkpt lat="46.1397" lon="-1.17193">
        <ele>4.5</ele>
        <time>2015-11-09T10:39:57Z</time>
      </trkpt>
      <trkpt lat="46.13976" lon="-1.17166">
        <ele>6.6</ele>
        <time>2015-11-09T10:40:10Z</time>
      </trkpt>
      <trkpt lat="46.13982" lon="-1.17141">
        <ele>6.6</ele>
        <time>2015-11-09T10:40:23Z</time>
      </trkpt>
      <trkpt lat="46.13992" lon="-1.1712">
        <ele>6.5</ele>
        <time>2015-11-09T10:40:35Z</time>
      </trkpt>
      <trkpt lat="46.14002" lon="-1.17097">
        <ele>6.4</ele>
        <time>2015-11-09T10:40:49Z</time>
      </trkpt>
      <trkpt lat="46.14014" lon="-1.17076">
        <ele>6.1</ele>
        <time>2015-11-09T10:41:01Z</time>
      </trkpt>
      <trkpt lat="46.14029" lon="-1.17059">
        <ele>5.9</ele>
        <time>2015-11-09T10:41:16Z</time>
      </trkpt>
      <trkpt lat="46.14047" lon="-1.17052">
        <ele>6</ele>
        <time>2015-11-09T10:41:31Z</time>
      </trkpt>
      <trkpt lat="46.14065" lon="-1.17052">
        <ele>6</ele>
        <time>2015-11-09T10:41:48Z</time>
      </trkpt>
      <trkpt lat="46.14084" lon="-1.17053">
        <ele>6</ele>
        <time>2015-11-09T10:42:06Z</time>
      </trkpt>
      <trkpt lat="46.14099" lon="-1.17052">
        <ele>5.4</ele>
        <time>2015-11-09T10:42:20Z</time>
      </trkpt>
      <trkpt lat="46.14116" lon="-1.1705">
        <ele>4.8</ele>
        <time>2015-11-09T10:42:51Z</time>
      </trkpt>
      <trkpt lat="46.14134" lon="-1.17043">
        <ele>4.5</ele>
        <time>2015-11-09T10:43:07Z</time>
      </trkpt>
      <trkpt lat="46.14146" lon="-1.17035">
        <ele>4.2</ele>
        <time>2015-11-09T10:43:21Z</time>
      </trkpt>
      <trkpt lat="46.14162" lon="-1.17022">
        <ele>4</ele>
        <time>2015-11-09T10:43:40Z</time>
      </trkpt>
      <trkpt lat="46.14175" lon="-1.17003">
        <ele>3.9</ele>
        <time>2015-11-09T10:43:57Z</time>
      </trkpt>
      <trkpt lat="46.14183" lon="-1.16987">
        <ele>4</ele>
        <time>2015-11-09T10:44:10Z</time>
      </trkpt>
      <trkpt lat="46.14188" lon="-1.16975">
        <ele>4</ele>
        <time>2015-11-09T10:45:08Z</time>
      </trkpt>
      <trkpt lat="46.14188" lon="-1.16975">
        <ele>4</ele>
        <time>2015-11-09T10:45:09Z</time>
      </trkpt>
      <trkpt lat="46.14188" lon="-1.16975">
        <ele>4</ele>
        <time>2015-11-09T10:45:11Z</time>
      </trkpt>
    </trkseg>
  </trk>
</gpx>